<?xml version="1.0" encoding="UTF-8" standalone="no" ?>
<gpx xmlns="http://www.topografix.com/GPX/1/1" xmlns:xsi="http://www.w3.org/2001/XMLSchema-instance" xsi:schemaLocation="http://www.topografix.com/GPX/1/1 http://www.topografix.com/GPX/1/1/gpx.xsd" version="1.1" creator="VisuGPX - https://www.visugpx.com">
  <metadata>
    <name>Chartreuse - Cheminée de Fontanieu</name>
    <desc><![CDATA[Superbe boucle à seneations en plein coeur de la chartreuse]]></desc>
  </metadata>
  <trk>
    <name><![CDATA[2015-08-22 07:26]]></name>
    <desc><![CDATA[<h1>OruxMaps</h1><br /><hr align="center" width="480" style="height: 2px; width: 517px"/><h2>Nom: 2015-08-22 07:26</h2><br /><p>Temps de départ: 08/22/2015 07:26</p><p>Temps d'arrivée: 08/22/2015 14:16</p><p>Distance: 17,7km (06:49)</p><p>Temps déplacement: 04:01</p><p>Vitesse moyenne: 2,6km/h</p><p>Vitesse moyenne: 4,4km/h</p><p>Vitess Max.: 10km/h</p><p>Altitude minimale: 973m</p><p>Altitude maximale: 1906m</p><p>Vitesse d'élévation: 496,7m/h</p><p>Vitesse de descente: -488,1m/h</p><p>Gain Altitude: 1598m</p><p>Perte Altitude: -1596m</p><p>Temps d'élévation: 03:13</p><p>Temps de descente: 03:16</p><hr align="center" width="480" style="height: 2px; width: 517px"/>]]></desc>
    <trkseg>
      <trkpt lat="45.37707" lon="5.85645">
        <ele>985.38</ele>
        <time>2015-08-22T05:26:26Z</time>
      </trkpt>
      <trkpt lat="45.37684" lon="5.85645">
        <ele>973.75</ele>
        <time>2015-08-22T05:26:28Z</time>
      </trkpt>
      <trkpt lat="45.37672" lon="5.85664">
        <ele>975.98</ele>
        <time>2015-08-22T05:27:39Z</time>
      </trkpt>
      <trkpt lat="45.37666" lon="5.8569">
        <ele>984.5</ele>
        <time>2015-08-22T05:27:59Z</time>
      </trkpt>
      <trkpt lat="45.37659" lon="5.85714">
        <ele>979.51</ele>
        <time>2015-08-22T05:28:08Z</time>
      </trkpt>
      <trkpt lat="45.37651" lon="5.85738">
        <ele>977.23</ele>
        <time>2015-08-22T05:28:26Z</time>
      </trkpt>
      <trkpt lat="45.3764" lon="5.85759">
        <ele>979.61</ele>
        <time>2015-08-22T05:28:42Z</time>
      </trkpt>
      <trkpt lat="45.37636" lon="5.85784">
        <ele>987.48</ele>
        <time>2015-08-22T05:28:59Z</time>
      </trkpt>
      <trkpt lat="45.37631" lon="5.85809">
        <ele>993.12</ele>
        <time>2015-08-22T05:29:17Z</time>
      </trkpt>
      <trkpt lat="45.3763" lon="5.85834">
        <ele>1000.44</ele>
        <time>2015-08-22T05:29:37Z</time>
      </trkpt>
      <trkpt lat="45.37617" lon="5.85855">
        <ele>1008.16</ele>
        <time>2015-08-22T05:29:54Z</time>
      </trkpt>
      <trkpt lat="45.37602" lon="5.85872">
        <ele>1004.14</ele>
        <time>2015-08-22T05:30:10Z</time>
      </trkpt>
      <trkpt lat="45.37588" lon="5.85889">
        <ele>1001.37</ele>
        <time>2015-08-22T05:30:22Z</time>
      </trkpt>
      <trkpt lat="45.37574" lon="5.85906">
        <ele>1001.06</ele>
        <time>2015-08-22T05:30:37Z</time>
      </trkpt>
      <trkpt lat="45.37562" lon="5.85925">
        <ele>1015.83</ele>
        <time>2015-08-22T05:31:03Z</time>
      </trkpt>
      <trkpt lat="45.37554" lon="5.85949">
        <ele>1025.67</ele>
        <time>2015-08-22T05:31:24Z</time>
      </trkpt>
      <trkpt lat="45.37537" lon="5.85958">
        <ele>1029.68</ele>
        <time>2015-08-22T05:31:36Z</time>
      </trkpt>
      <trkpt lat="45.3752" lon="5.85973">
        <ele>1018.43</ele>
        <time>2015-08-22T05:31:46Z</time>
      </trkpt>
      <trkpt lat="45.37505" lon="5.85987">
        <ele>1013.54</ele>
        <time>2015-08-22T05:31:58Z</time>
      </trkpt>
      <trkpt lat="45.37491" lon="5.86006">
        <ele>1018</ele>
        <time>2015-08-22T05:32:15Z</time>
      </trkpt>
      <trkpt lat="45.37476" lon="5.86021">
        <ele>1020.83</ele>
        <time>2015-08-22T05:32:32Z</time>
      </trkpt>
      <trkpt lat="45.37462" lon="5.8604">
        <ele>1032.02</ele>
        <time>2015-08-22T05:32:54Z</time>
      </trkpt>
      <trkpt lat="45.37444" lon="5.86047">
        <ele>1029.25</ele>
        <time>2015-08-22T05:33:15Z</time>
      </trkpt>
      <trkpt lat="45.37425" lon="5.86052">
        <ele>1030.55</ele>
        <time>2015-08-22T05:33:32Z</time>
      </trkpt>
      <trkpt lat="45.37413" lon="5.86071">
        <ele>1032.71</ele>
        <time>2015-08-22T05:33:59Z</time>
      </trkpt>
      <trkpt lat="45.37396" lon="5.86086">
        <ele>1035.99</ele>
        <time>2015-08-22T05:34:10Z</time>
      </trkpt>
      <trkpt lat="45.37383" lon="5.86105">
        <ele>1033.27</ele>
        <time>2015-08-22T05:34:25Z</time>
      </trkpt>
      <trkpt lat="45.37369" lon="5.86121">
        <ele>1045.33</ele>
        <time>2015-08-22T05:34:42Z</time>
      </trkpt>
      <trkpt lat="45.37351" lon="5.86123">
        <ele>1042.9</ele>
        <time>2015-08-22T05:35:01Z</time>
      </trkpt>
      <trkpt lat="45.37331" lon="5.86126">
        <ele>1043.42</ele>
        <time>2015-08-22T05:35:18Z</time>
      </trkpt>
      <trkpt lat="45.37313" lon="5.86129">
        <ele>1044.74</ele>
        <time>2015-08-22T05:35:36Z</time>
      </trkpt>
      <trkpt lat="45.37295" lon="5.86135">
        <ele>1052.17</ele>
        <time>2015-08-22T05:35:53Z</time>
      </trkpt>
      <trkpt lat="45.37277" lon="5.86139">
        <ele>1044.41</ele>
        <time>2015-08-22T05:36:11Z</time>
      </trkpt>
      <trkpt lat="45.3726" lon="5.86153">
        <ele>1048.5</ele>
        <time>2015-08-22T05:36:24Z</time>
      </trkpt>
      <trkpt lat="45.37243" lon="5.86162">
        <ele>1053.26</ele>
        <time>2015-08-22T05:36:38Z</time>
      </trkpt>
      <trkpt lat="45.37225" lon="5.86167">
        <ele>1059.71</ele>
        <time>2015-08-22T05:36:52Z</time>
      </trkpt>
      <trkpt lat="45.37207" lon="5.86159">
        <ele>1060.94</ele>
        <time>2015-08-22T05:37:13Z</time>
      </trkpt>
      <trkpt lat="45.37191" lon="5.86147">
        <ele>1059.68</ele>
        <time>2015-08-22T05:37:28Z</time>
      </trkpt>
      <trkpt lat="45.37175" lon="5.86134">
        <ele>1056.78</ele>
        <time>2015-08-22T05:37:42Z</time>
      </trkpt>
      <trkpt lat="45.37157" lon="5.86135">
        <ele>1052.99</ele>
        <time>2015-08-22T05:37:56Z</time>
      </trkpt>
      <trkpt lat="45.37138" lon="5.86131">
        <ele>1054.11</ele>
        <time>2015-08-22T05:38:10Z</time>
      </trkpt>
      <trkpt lat="45.3712" lon="5.8613">
        <ele>1059.34</ele>
        <time>2015-08-22T05:38:24Z</time>
      </trkpt>
      <trkpt lat="45.37104" lon="5.86143">
        <ele>1072.04</ele>
        <time>2015-08-22T05:38:38Z</time>
      </trkpt>
      <trkpt lat="45.37095" lon="5.86165">
        <ele>1069.02</ele>
        <time>2015-08-22T05:38:56Z</time>
      </trkpt>
      <trkpt lat="45.37081" lon="5.86184">
        <ele>1069.4</ele>
        <time>2015-08-22T05:39:10Z</time>
      </trkpt>
      <trkpt lat="45.37064" lon="5.86194">
        <ele>1071.15</ele>
        <time>2015-08-22T05:39:24Z</time>
      </trkpt>
      <trkpt lat="45.37046" lon="5.86202">
        <ele>1073.09</ele>
        <time>2015-08-22T05:39:41Z</time>
      </trkpt>
      <trkpt lat="45.37028" lon="5.86209">
        <ele>1077.1</ele>
        <time>2015-08-22T05:39:55Z</time>
      </trkpt>
      <trkpt lat="45.3701" lon="5.86214">
        <ele>1074.69</ele>
        <time>2015-08-22T05:40:07Z</time>
      </trkpt>
      <trkpt lat="45.36992" lon="5.8622">
        <ele>1076.68</ele>
        <time>2015-08-22T05:40:20Z</time>
      </trkpt>
      <trkpt lat="45.36973" lon="5.86221">
        <ele>1076.11</ele>
        <time>2015-08-22T05:40:36Z</time>
      </trkpt>
      <trkpt lat="45.36954" lon="5.86223">
        <ele>1078.74</ele>
        <time>2015-08-22T05:40:50Z</time>
      </trkpt>
      <trkpt lat="45.36936" lon="5.86222">
        <ele>1082.61</ele>
        <time>2015-08-22T05:41:04Z</time>
      </trkpt>
      <trkpt lat="45.36917" lon="5.86225">
        <ele>1089.61</ele>
        <time>2015-08-22T05:41:19Z</time>
      </trkpt>
      <trkpt lat="45.36904" lon="5.86207">
        <ele>1075.22</ele>
        <time>2015-08-22T05:41:38Z</time>
      </trkpt>
      <trkpt lat="45.36889" lon="5.8619">
        <ele>1077.96</ele>
        <time>2015-08-22T05:41:53Z</time>
      </trkpt>
      <trkpt lat="45.3687" lon="5.86189">
        <ele>1087.41</ele>
        <time>2015-08-22T05:42:05Z</time>
      </trkpt>
      <trkpt lat="45.36852" lon="5.86193">
        <ele>1093.81</ele>
        <time>2015-08-22T05:42:17Z</time>
      </trkpt>
      <trkpt lat="45.36834" lon="5.86198">
        <ele>1096.24</ele>
        <time>2015-08-22T05:42:34Z</time>
      </trkpt>
      <trkpt lat="45.36816" lon="5.86206">
        <ele>1096.68</ele>
        <time>2015-08-22T05:42:54Z</time>
      </trkpt>
      <trkpt lat="45.36799" lon="5.86209">
        <ele>1095.28</ele>
        <time>2015-08-22T05:43:06Z</time>
      </trkpt>
      <trkpt lat="45.3678" lon="5.8621">
        <ele>1095.58</ele>
        <time>2015-08-22T05:43:19Z</time>
      </trkpt>
      <trkpt lat="45.36762" lon="5.86213">
        <ele>1099.84</ele>
        <time>2015-08-22T05:43:33Z</time>
      </trkpt>
      <trkpt lat="45.36743" lon="5.86211">
        <ele>1098.04</ele>
        <time>2015-08-22T05:43:48Z</time>
      </trkpt>
      <trkpt lat="45.36725" lon="5.86207">
        <ele>1100.21</ele>
        <time>2015-08-22T05:44:03Z</time>
      </trkpt>
      <trkpt lat="45.36707" lon="5.86212">
        <ele>1108.27</ele>
        <time>2015-08-22T05:44:16Z</time>
      </trkpt>
      <trkpt lat="45.36689" lon="5.86221">
        <ele>1112.23</ele>
        <time>2015-08-22T05:44:28Z</time>
      </trkpt>
      <trkpt lat="45.36671" lon="5.86218">
        <ele>1113.62</ele>
        <time>2015-08-22T05:44:41Z</time>
      </trkpt>
      <trkpt lat="45.36653" lon="5.8621">
        <ele>1113.78</ele>
        <time>2015-08-22T05:44:56Z</time>
      </trkpt>
      <trkpt lat="45.36636" lon="5.86218">
        <ele>1117.33</ele>
        <time>2015-08-22T05:45:06Z</time>
      </trkpt>
      <trkpt lat="45.36616" lon="5.86219">
        <ele>1116.14</ele>
        <time>2015-08-22T05:45:17Z</time>
      </trkpt>
      <trkpt lat="45.36598" lon="5.86226">
        <ele>1117.65</ele>
        <time>2015-08-22T05:45:29Z</time>
      </trkpt>
      <trkpt lat="45.3658" lon="5.86234">
        <ele>1116.88</ele>
        <time>2015-08-22T05:45:42Z</time>
      </trkpt>
      <trkpt lat="45.36561" lon="5.86242">
        <ele>1118.1</ele>
        <time>2015-08-22T05:45:54Z</time>
      </trkpt>
      <trkpt lat="45.36544" lon="5.86251">
        <ele>1118.85</ele>
        <time>2015-08-22T05:46:04Z</time>
      </trkpt>
      <trkpt lat="45.36527" lon="5.86259">
        <ele>1120.59</ele>
        <time>2015-08-22T05:46:15Z</time>
      </trkpt>
      <trkpt lat="45.36509" lon="5.86258">
        <ele>1108.91</ele>
        <time>2015-08-22T05:46:35Z</time>
      </trkpt>
      <trkpt lat="45.36492" lon="5.86268">
        <ele>1106.48</ele>
        <time>2015-08-22T05:46:49Z</time>
      </trkpt>
      <trkpt lat="45.36474" lon="5.86272">
        <ele>1105.48</ele>
        <time>2015-08-22T05:47:59Z</time>
      </trkpt>
      <trkpt lat="45.36456" lon="5.86275">
        <ele>1115.49</ele>
        <time>2015-08-22T05:48:24Z</time>
      </trkpt>
      <trkpt lat="45.36438" lon="5.86281">
        <ele>1135.66</ele>
        <time>2015-08-22T05:49:13Z</time>
      </trkpt>
      <trkpt lat="45.36426" lon="5.86299">
        <ele>1138.26</ele>
        <time>2015-08-22T05:49:46Z</time>
      </trkpt>
      <trkpt lat="45.3643" lon="5.86325">
        <ele>1147.77</ele>
        <time>2015-08-22T05:50:08Z</time>
      </trkpt>
      <trkpt lat="45.36446" lon="5.86339">
        <ele>1156.2</ele>
        <time>2015-08-22T05:51:00Z</time>
      </trkpt>
      <trkpt lat="45.36463" lon="5.86349">
        <ele>1161.6</ele>
        <time>2015-08-22T05:51:22Z</time>
      </trkpt>
      <trkpt lat="45.3648" lon="5.86359">
        <ele>1154.09</ele>
        <time>2015-08-22T05:51:36Z</time>
      </trkpt>
      <trkpt lat="45.36497" lon="5.86367">
        <ele>1150.69</ele>
        <time>2015-08-22T05:52:47Z</time>
      </trkpt>
      <trkpt lat="45.36512" lon="5.86382">
        <ele>1164.98</ele>
        <time>2015-08-22T05:53:17Z</time>
      </trkpt>
      <trkpt lat="45.36504" lon="5.86405">
        <ele>1167.13</ele>
        <time>2015-08-22T05:53:52Z</time>
      </trkpt>
      <trkpt lat="45.36486" lon="5.8641">
        <ele>1172.63</ele>
        <time>2015-08-22T05:54:19Z</time>
      </trkpt>
      <trkpt lat="45.36486" lon="5.86436">
        <ele>1181.99</ele>
        <time>2015-08-22T05:54:41Z</time>
      </trkpt>
      <trkpt lat="45.3649" lon="5.86461">
        <ele>1188.42</ele>
        <time>2015-08-22T05:55:06Z</time>
      </trkpt>
      <trkpt lat="45.36486" lon="5.86487">
        <ele>1192.48</ele>
        <time>2015-08-22T05:55:24Z</time>
      </trkpt>
      <trkpt lat="45.36489" lon="5.86514">
        <ele>1192.55</ele>
        <time>2015-08-22T05:55:40Z</time>
      </trkpt>
      <trkpt lat="45.36499" lon="5.86537">
        <ele>1195.82</ele>
        <time>2015-08-22T05:55:55Z</time>
      </trkpt>
      <trkpt lat="45.36498" lon="5.86565">
        <ele>1192.82</ele>
        <time>2015-08-22T05:56:15Z</time>
      </trkpt>
      <trkpt lat="45.36508" lon="5.86587">
        <ele>1204.41</ele>
        <time>2015-08-22T05:56:37Z</time>
      </trkpt>
      <trkpt lat="45.3652" lon="5.86607">
        <ele>1206.38</ele>
        <time>2015-08-22T05:57:19Z</time>
      </trkpt>
      <trkpt lat="45.36531" lon="5.86628">
        <ele>1208.46</ele>
        <time>2015-08-22T05:57:35Z</time>
      </trkpt>
      <trkpt lat="45.36544" lon="5.86649">
        <ele>1207.35</ele>
        <time>2015-08-22T05:57:47Z</time>
      </trkpt>
      <trkpt lat="45.36557" lon="5.86668">
        <ele>1208.41</ele>
        <time>2015-08-22T05:57:59Z</time>
      </trkpt>
      <trkpt lat="45.36544" lon="5.86686">
        <ele>1211.57</ele>
        <time>2015-08-22T05:58:37Z</time>
      </trkpt>
      <trkpt lat="45.36525" lon="5.86682">
        <ele>1222.21</ele>
        <time>2015-08-22T05:59:07Z</time>
      </trkpt>
      <trkpt lat="45.36507" lon="5.8668">
        <ele>1218.78</ele>
        <time>2015-08-22T05:59:29Z</time>
      </trkpt>
      <trkpt lat="45.36489" lon="5.86677">
        <ele>1222.2</ele>
        <time>2015-08-22T05:59:43Z</time>
      </trkpt>
      <trkpt lat="45.3647" lon="5.86681">
        <ele>1222.52</ele>
        <time>2015-08-22T06:00:04Z</time>
      </trkpt>
      <trkpt lat="45.36452" lon="5.86688">
        <ele>1231.35</ele>
        <time>2015-08-22T06:00:28Z</time>
      </trkpt>
      <trkpt lat="45.36435" lon="5.86693">
        <ele>1231.53</ele>
        <time>2015-08-22T06:00:45Z</time>
      </trkpt>
      <trkpt lat="45.36419" lon="5.86706">
        <ele>1228.92</ele>
        <time>2015-08-22T06:01:01Z</time>
      </trkpt>
      <trkpt lat="45.36402" lon="5.86698">
        <ele>1242.61</ele>
        <time>2015-08-22T06:01:18Z</time>
      </trkpt>
      <trkpt lat="45.36384" lon="5.86698">
        <ele>1256.11</ele>
        <time>2015-08-22T06:01:46Z</time>
      </trkpt>
      <trkpt lat="45.36373" lon="5.8672">
        <ele>1250.56</ele>
        <time>2015-08-22T06:02:14Z</time>
      </trkpt>
      <trkpt lat="45.36357" lon="5.86729">
        <ele>1254.87</ele>
        <time>2015-08-22T06:02:34Z</time>
      </trkpt>
      <trkpt lat="45.36341" lon="5.86743">
        <ele>1256.89</ele>
        <time>2015-08-22T06:02:52Z</time>
      </trkpt>
      <trkpt lat="45.36325" lon="5.86758">
        <ele>1254.25</ele>
        <time>2015-08-22T06:03:05Z</time>
      </trkpt>
      <trkpt lat="45.36307" lon="5.86762">
        <ele>1262.49</ele>
        <time>2015-08-22T06:03:22Z</time>
      </trkpt>
      <trkpt lat="45.36291" lon="5.86773">
        <ele>1254.12</ele>
        <time>2015-08-22T06:03:38Z</time>
      </trkpt>
      <trkpt lat="45.36275" lon="5.86786">
        <ele>1255.74</ele>
        <time>2015-08-22T06:03:55Z</time>
      </trkpt>
      <trkpt lat="45.36256" lon="5.86783">
        <ele>1263.12</ele>
        <time>2015-08-22T06:04:19Z</time>
      </trkpt>
      <trkpt lat="45.36241" lon="5.86769">
        <ele>1267.81</ele>
        <time>2015-08-22T06:04:44Z</time>
      </trkpt>
      <trkpt lat="45.36222" lon="5.86768">
        <ele>1268.19</ele>
        <time>2015-08-22T06:05:10Z</time>
      </trkpt>
      <trkpt lat="45.36204" lon="5.86774">
        <ele>1268.57</ele>
        <time>2015-08-22T06:05:33Z</time>
      </trkpt>
      <trkpt lat="45.36186" lon="5.86776">
        <ele>1288.8</ele>
        <time>2015-08-22T06:06:24Z</time>
      </trkpt>
      <trkpt lat="45.36167" lon="5.86778">
        <ele>1289.88</ele>
        <time>2015-08-22T06:08:04Z</time>
      </trkpt>
      <trkpt lat="45.36159" lon="5.86754">
        <ele>1286.12</ele>
        <time>2015-08-22T06:08:45Z</time>
      </trkpt>
      <trkpt lat="45.36154" lon="5.86729">
        <ele>1279.58</ele>
        <time>2015-08-22T06:09:00Z</time>
      </trkpt>
      <trkpt lat="45.36146" lon="5.86752">
        <ele>1290.73</ele>
        <time>2015-08-22T06:10:15Z</time>
      </trkpt>
      <trkpt lat="45.3614" lon="5.86778">
        <ele>1296.2</ele>
        <time>2015-08-22T06:10:35Z</time>
      </trkpt>
      <trkpt lat="45.36142" lon="5.86803">
        <ele>1292.63</ele>
        <time>2015-08-22T06:11:24Z</time>
      </trkpt>
      <trkpt lat="45.36154" lon="5.86825">
        <ele>1291.98</ele>
        <time>2015-08-22T06:11:38Z</time>
      </trkpt>
      <trkpt lat="45.36167" lon="5.86844">
        <ele>1292.97</ele>
        <time>2015-08-22T06:11:53Z</time>
      </trkpt>
      <trkpt lat="45.36179" lon="5.86864">
        <ele>1293.09</ele>
        <time>2015-08-22T06:12:09Z</time>
      </trkpt>
      <trkpt lat="45.36188" lon="5.86887">
        <ele>1298.95</ele>
        <time>2015-08-22T06:12:34Z</time>
      </trkpt>
      <trkpt lat="45.36206" lon="5.86899">
        <ele>1300.89</ele>
        <time>2015-08-22T06:13:01Z</time>
      </trkpt>
      <trkpt lat="45.36219" lon="5.8692">
        <ele>1303.57</ele>
        <time>2015-08-22T06:13:13Z</time>
      </trkpt>
      <trkpt lat="45.36226" lon="5.86945">
        <ele>1301.12</ele>
        <time>2015-08-22T06:13:48Z</time>
      </trkpt>
      <trkpt lat="45.36239" lon="5.86963">
        <ele>1295.2</ele>
        <time>2015-08-22T06:14:00Z</time>
      </trkpt>
      <trkpt lat="45.36257" lon="5.86968">
        <ele>1301.91</ele>
        <time>2015-08-22T06:16:49Z</time>
      </trkpt>
      <trkpt lat="45.36273" lon="5.86958">
        <ele>1298.22</ele>
        <time>2015-08-22T06:17:00Z</time>
      </trkpt>
      <trkpt lat="45.36289" lon="5.86943">
        <ele>1300.84</ele>
        <time>2015-08-22T06:17:12Z</time>
      </trkpt>
      <trkpt lat="45.36308" lon="5.86942">
        <ele>1299.33</ele>
        <time>2015-08-22T06:17:31Z</time>
      </trkpt>
      <trkpt lat="45.36325" lon="5.86947">
        <ele>1306.7</ele>
        <time>2015-08-22T06:17:52Z</time>
      </trkpt>
      <trkpt lat="45.36344" lon="5.8695">
        <ele>1312.95</ele>
        <time>2015-08-22T06:18:21Z</time>
      </trkpt>
      <trkpt lat="45.36362" lon="5.86955">
        <ele>1317.29</ele>
        <time>2015-08-22T06:18:33Z</time>
      </trkpt>
      <trkpt lat="45.3638" lon="5.86962">
        <ele>1324.7</ele>
        <time>2015-08-22T06:18:50Z</time>
      </trkpt>
      <trkpt lat="45.36388" lon="5.86985">
        <ele>1325.39</ele>
        <time>2015-08-22T06:19:13Z</time>
      </trkpt>
      <trkpt lat="45.36397" lon="5.87008">
        <ele>1330.91</ele>
        <time>2015-08-22T06:19:52Z</time>
      </trkpt>
      <trkpt lat="45.36409" lon="5.87029">
        <ele>1333.27</ele>
        <time>2015-08-22T06:21:47Z</time>
      </trkpt>
      <trkpt lat="45.3642" lon="5.87051">
        <ele>1330.52</ele>
        <time>2015-08-22T06:22:00Z</time>
      </trkpt>
      <trkpt lat="45.36428" lon="5.87075">
        <ele>1333.35</ele>
        <time>2015-08-22T06:22:18Z</time>
      </trkpt>
      <trkpt lat="45.3643" lon="5.87101">
        <ele>1337.91</ele>
        <time>2015-08-22T06:22:32Z</time>
      </trkpt>
      <trkpt lat="45.36442" lon="5.87121">
        <ele>1337</ele>
        <time>2015-08-22T06:23:04Z</time>
      </trkpt>
      <trkpt lat="45.36443" lon="5.87146">
        <ele>1338.87</ele>
        <time>2015-08-22T06:23:27Z</time>
      </trkpt>
      <trkpt lat="45.36446" lon="5.87172">
        <ele>1334.19</ele>
        <time>2015-08-22T06:24:09Z</time>
      </trkpt>
      <trkpt lat="45.36457" lon="5.87192">
        <ele>1336.76</ele>
        <time>2015-08-22T06:25:06Z</time>
      </trkpt>
      <trkpt lat="45.36477" lon="5.87191">
        <ele>1339.71</ele>
        <time>2015-08-22T06:25:16Z</time>
      </trkpt>
      <trkpt lat="45.36497" lon="5.87193">
        <ele>1347.38</ele>
        <time>2015-08-22T06:25:39Z</time>
      </trkpt>
      <trkpt lat="45.36514" lon="5.87203">
        <ele>1352.01</ele>
        <time>2015-08-22T06:25:52Z</time>
      </trkpt>
      <trkpt lat="45.36523" lon="5.87225">
        <ele>1367.2</ele>
        <time>2015-08-22T06:26:29Z</time>
      </trkpt>
      <trkpt lat="45.36541" lon="5.87232">
        <ele>1376.68</ele>
        <time>2015-08-22T06:26:47Z</time>
      </trkpt>
      <trkpt lat="45.3656" lon="5.87236">
        <ele>1368.41</ele>
        <time>2015-08-22T06:26:56Z</time>
      </trkpt>
      <trkpt lat="45.36577" lon="5.87232">
        <ele>1367.11</ele>
        <time>2015-08-22T06:27:13Z</time>
      </trkpt>
      <trkpt lat="45.36596" lon="5.87228">
        <ele>1371.12</ele>
        <time>2015-08-22T06:27:34Z</time>
      </trkpt>
      <trkpt lat="45.36614" lon="5.87224">
        <ele>1371.84</ele>
        <time>2015-08-22T06:27:53Z</time>
      </trkpt>
      <trkpt lat="45.36632" lon="5.87218">
        <ele>1366.7</ele>
        <time>2015-08-22T06:28:16Z</time>
      </trkpt>
      <trkpt lat="45.36638" lon="5.87244">
        <ele>1365.18</ele>
        <time>2015-08-22T06:28:35Z</time>
      </trkpt>
      <trkpt lat="45.36657" lon="5.87245">
        <ele>1363.14</ele>
        <time>2015-08-22T06:28:51Z</time>
      </trkpt>
      <trkpt lat="45.36673" lon="5.87259">
        <ele>1364.7</ele>
        <time>2015-08-22T06:29:17Z</time>
      </trkpt>
      <trkpt lat="45.36685" lon="5.87279">
        <ele>1372</ele>
        <time>2015-08-22T06:29:41Z</time>
      </trkpt>
      <trkpt lat="45.36693" lon="5.87303">
        <ele>1376.46</ele>
        <time>2015-08-22T06:30:06Z</time>
      </trkpt>
      <trkpt lat="45.36703" lon="5.87325">
        <ele>1387.13</ele>
        <time>2015-08-22T06:30:30Z</time>
      </trkpt>
      <trkpt lat="45.36721" lon="5.87332">
        <ele>1392.64</ele>
        <time>2015-08-22T06:30:57Z</time>
      </trkpt>
      <trkpt lat="45.36739" lon="5.87341">
        <ele>1390.25</ele>
        <time>2015-08-22T06:31:26Z</time>
      </trkpt>
      <trkpt lat="45.36755" lon="5.87357">
        <ele>1385.71</ele>
        <time>2015-08-22T06:31:36Z</time>
      </trkpt>
      <trkpt lat="45.36771" lon="5.87371">
        <ele>1392.59</ele>
        <time>2015-08-22T06:31:50Z</time>
      </trkpt>
      <trkpt lat="45.36788" lon="5.87378">
        <ele>1397.12</ele>
        <time>2015-08-22T06:32:22Z</time>
      </trkpt>
      <trkpt lat="45.36806" lon="5.87386">
        <ele>1395.19</ele>
        <time>2015-08-22T06:32:34Z</time>
      </trkpt>
      <trkpt lat="45.36824" lon="5.87395">
        <ele>1386.31</ele>
        <time>2015-08-22T06:32:54Z</time>
      </trkpt>
      <trkpt lat="45.3684" lon="5.87408">
        <ele>1383.94</ele>
        <time>2015-08-22T06:33:10Z</time>
      </trkpt>
      <trkpt lat="45.36857" lon="5.87415">
        <ele>1396.84</ele>
        <time>2015-08-22T06:33:44Z</time>
      </trkpt>
      <trkpt lat="45.36876" lon="5.87414">
        <ele>1395.32</ele>
        <time>2015-08-22T06:34:10Z</time>
      </trkpt>
      <trkpt lat="45.36894" lon="5.87412">
        <ele>1405.69</ele>
        <time>2015-08-22T06:34:53Z</time>
      </trkpt>
      <trkpt lat="45.36913" lon="5.87413">
        <ele>1405.38</ele>
        <time>2015-08-22T06:35:19Z</time>
      </trkpt>
      <trkpt lat="45.36932" lon="5.87418">
        <ele>1394.38</ele>
        <time>2015-08-22T06:35:28Z</time>
      </trkpt>
      <trkpt lat="45.3695" lon="5.87414">
        <ele>1393.5</ele>
        <time>2015-08-22T06:36:04Z</time>
      </trkpt>
      <trkpt lat="45.3697" lon="5.87415">
        <ele>1388.07</ele>
        <time>2015-08-22T06:36:14Z</time>
      </trkpt>
      <trkpt lat="45.36989" lon="5.87413">
        <ele>1396.67</ele>
        <time>2015-08-22T06:36:26Z</time>
      </trkpt>
      <trkpt lat="45.37007" lon="5.87414">
        <ele>1400.49</ele>
        <time>2015-08-22T06:36:48Z</time>
      </trkpt>
      <trkpt lat="45.37026" lon="5.87411">
        <ele>1398.08</ele>
        <time>2015-08-22T06:37:06Z</time>
      </trkpt>
      <trkpt lat="45.37045" lon="5.87405">
        <ele>1405.96</ele>
        <time>2015-08-22T06:37:25Z</time>
      </trkpt>
      <trkpt lat="45.37063" lon="5.87399">
        <ele>1407.38</ele>
        <time>2015-08-22T06:37:41Z</time>
      </trkpt>
      <trkpt lat="45.37081" lon="5.87392">
        <ele>1425.37</ele>
        <time>2015-08-22T06:38:06Z</time>
      </trkpt>
      <trkpt lat="45.37099" lon="5.87392">
        <ele>1422.02</ele>
        <time>2015-08-22T06:38:25Z</time>
      </trkpt>
      <trkpt lat="45.37117" lon="5.87393">
        <ele>1421.81</ele>
        <time>2015-08-22T06:38:37Z</time>
      </trkpt>
      <trkpt lat="45.37136" lon="5.87391">
        <ele>1423.63</ele>
        <time>2015-08-22T06:38:55Z</time>
      </trkpt>
      <trkpt lat="45.37155" lon="5.87392">
        <ele>1426.07</ele>
        <time>2015-08-22T06:39:20Z</time>
      </trkpt>
      <trkpt lat="45.37173" lon="5.87395">
        <ele>1434.47</ele>
        <time>2015-08-22T06:39:46Z</time>
      </trkpt>
      <trkpt lat="45.37191" lon="5.87393">
        <ele>1446.51</ele>
        <time>2015-08-22T06:40:13Z</time>
      </trkpt>
      <trkpt lat="45.37209" lon="5.874">
        <ele>1449.95</ele>
        <time>2015-08-22T06:40:29Z</time>
      </trkpt>
      <trkpt lat="45.37227" lon="5.87406">
        <ele>1453.72</ele>
        <time>2015-08-22T06:40:50Z</time>
      </trkpt>
      <trkpt lat="45.37245" lon="5.87411">
        <ele>1458.15</ele>
        <time>2015-08-22T06:41:36Z</time>
      </trkpt>
      <trkpt lat="45.37263" lon="5.8742">
        <ele>1463.9</ele>
        <time>2015-08-22T06:41:50Z</time>
      </trkpt>
      <trkpt lat="45.37281" lon="5.87426">
        <ele>1471.05</ele>
        <time>2015-08-22T06:42:09Z</time>
      </trkpt>
      <trkpt lat="45.37298" lon="5.87436">
        <ele>1471.13</ele>
        <time>2015-08-22T06:42:25Z</time>
      </trkpt>
      <trkpt lat="45.37315" lon="5.87444">
        <ele>1481.5</ele>
        <time>2015-08-22T06:42:52Z</time>
      </trkpt>
      <trkpt lat="45.37333" lon="5.87454">
        <ele>1482.96</ele>
        <time>2015-08-22T06:43:11Z</time>
      </trkpt>
      <trkpt lat="45.37351" lon="5.87459">
        <ele>1476.34</ele>
        <time>2015-08-22T06:43:33Z</time>
      </trkpt>
      <trkpt lat="45.37369" lon="5.87451">
        <ele>1476.73</ele>
        <time>2015-08-22T06:44:08Z</time>
      </trkpt>
      <trkpt lat="45.37387" lon="5.87452">
        <ele>1472.63</ele>
        <time>2015-08-22T06:44:26Z</time>
      </trkpt>
      <trkpt lat="45.37405" lon="5.87454">
        <ele>1464.76</ele>
        <time>2015-08-22T06:44:48Z</time>
      </trkpt>
      <trkpt lat="45.37424" lon="5.87451">
        <ele>1462.79</ele>
        <time>2015-08-22T06:45:01Z</time>
      </trkpt>
      <trkpt lat="45.37442" lon="5.87454">
        <ele>1468.64</ele>
        <time>2015-08-22T06:45:13Z</time>
      </trkpt>
      <trkpt lat="45.37461" lon="5.87448">
        <ele>1480.76</ele>
        <time>2015-08-22T06:45:41Z</time>
      </trkpt>
      <trkpt lat="45.37479" lon="5.87451">
        <ele>1475.99</ele>
        <time>2015-08-22T06:45:57Z</time>
      </trkpt>
      <trkpt lat="45.37498" lon="5.87453">
        <ele>1484.5</ele>
        <time>2015-08-22T06:46:53Z</time>
      </trkpt>
      <trkpt lat="45.37516" lon="5.87463">
        <ele>1484.73</ele>
        <time>2015-08-22T06:47:04Z</time>
      </trkpt>
      <trkpt lat="45.37534" lon="5.87457">
        <ele>1494.43</ele>
        <time>2015-08-22T06:47:41Z</time>
      </trkpt>
      <trkpt lat="45.37553" lon="5.87457">
        <ele>1496.36</ele>
        <time>2015-08-22T06:49:04Z</time>
      </trkpt>
      <trkpt lat="45.37569" lon="5.87472">
        <ele>1500.61</ele>
        <time>2015-08-22T06:49:26Z</time>
      </trkpt>
      <trkpt lat="45.37586" lon="5.87483">
        <ele>1505.88</ele>
        <time>2015-08-22T06:49:45Z</time>
      </trkpt>
      <trkpt lat="45.37603" lon="5.87489">
        <ele>1510.03</ele>
        <time>2015-08-22T06:50:17Z</time>
      </trkpt>
      <trkpt lat="45.37623" lon="5.87483">
        <ele>1507.94</ele>
        <time>2015-08-22T06:50:47Z</time>
      </trkpt>
      <trkpt lat="45.37641" lon="5.87486">
        <ele>1506.63</ele>
        <time>2015-08-22T06:51:08Z</time>
      </trkpt>
      <trkpt lat="45.37658" lon="5.87495">
        <ele>1516.18</ele>
        <time>2015-08-22T06:51:36Z</time>
      </trkpt>
      <trkpt lat="45.37673" lon="5.87509">
        <ele>1516.93</ele>
        <time>2015-08-22T06:51:52Z</time>
      </trkpt>
      <trkpt lat="45.37691" lon="5.87517">
        <ele>1515.69</ele>
        <time>2015-08-22T06:52:16Z</time>
      </trkpt>
      <trkpt lat="45.37709" lon="5.8752">
        <ele>1521.61</ele>
        <time>2015-08-22T06:53:29Z</time>
      </trkpt>
      <trkpt lat="45.37719" lon="5.87497">
        <ele>1522.67</ele>
        <time>2015-08-22T06:53:48Z</time>
      </trkpt>
      <trkpt lat="45.37738" lon="5.87497">
        <ele>1520.73</ele>
        <time>2015-08-22T06:54:23Z</time>
      </trkpt>
      <trkpt lat="45.37754" lon="5.87486">
        <ele>1519.28</ele>
        <time>2015-08-22T06:54:34Z</time>
      </trkpt>
      <trkpt lat="45.37772" lon="5.87482">
        <ele>1519.28</ele>
        <time>2015-08-22T06:54:47Z</time>
      </trkpt>
      <trkpt lat="45.37789" lon="5.87491">
        <ele>1517.34</ele>
        <time>2015-08-22T06:55:09Z</time>
      </trkpt>
      <trkpt lat="45.37807" lon="5.87501">
        <ele>1540.53</ele>
        <time>2015-08-22T06:55:43Z</time>
      </trkpt>
      <trkpt lat="45.37824" lon="5.87509">
        <ele>1534.88</ele>
        <time>2015-08-22T06:56:15Z</time>
      </trkpt>
      <trkpt lat="45.37842" lon="5.87513">
        <ele>1540.03</ele>
        <time>2015-08-22T06:56:36Z</time>
      </trkpt>
      <trkpt lat="45.37861" lon="5.87512">
        <ele>1543.02</ele>
        <time>2015-08-22T06:56:51Z</time>
      </trkpt>
      <trkpt lat="45.37879" lon="5.87517">
        <ele>1547.94</ele>
        <time>2015-08-22T06:57:18Z</time>
      </trkpt>
      <trkpt lat="45.37899" lon="5.87516">
        <ele>1565.16</ele>
        <time>2015-08-22T06:57:44Z</time>
      </trkpt>
      <trkpt lat="45.37916" lon="5.87521">
        <ele>1561.05</ele>
        <time>2015-08-22T06:57:57Z</time>
      </trkpt>
      <trkpt lat="45.37934" lon="5.8753">
        <ele>1557.09</ele>
        <time>2015-08-22T06:58:07Z</time>
      </trkpt>
      <trkpt lat="45.37953" lon="5.87536">
        <ele>1564.58</ele>
        <time>2015-08-22T06:58:23Z</time>
      </trkpt>
      <trkpt lat="45.3797" lon="5.87544">
        <ele>1567.83</ele>
        <time>2015-08-22T06:58:43Z</time>
      </trkpt>
      <trkpt lat="45.37987" lon="5.87555">
        <ele>1567.46</ele>
        <time>2015-08-22T06:59:32Z</time>
      </trkpt>
      <trkpt lat="45.38005" lon="5.87555">
        <ele>1573.6</ele>
        <time>2015-08-22T06:59:47Z</time>
      </trkpt>
      <trkpt lat="45.38024" lon="5.8755">
        <ele>1573</ele>
        <time>2015-08-22T07:00:14Z</time>
      </trkpt>
      <trkpt lat="45.38042" lon="5.87552">
        <ele>1568.56</ele>
        <time>2015-08-22T07:00:27Z</time>
      </trkpt>
      <trkpt lat="45.3806" lon="5.87548">
        <ele>1570.12</ele>
        <time>2015-08-22T07:00:40Z</time>
      </trkpt>
      <trkpt lat="45.38079" lon="5.87548">
        <ele>1566.71</ele>
        <time>2015-08-22T07:01:07Z</time>
      </trkpt>
      <trkpt lat="45.38098" lon="5.87547">
        <ele>1575.09</ele>
        <time>2015-08-22T07:01:24Z</time>
      </trkpt>
      <trkpt lat="45.38116" lon="5.87553">
        <ele>1573.82</ele>
        <time>2015-08-22T07:01:39Z</time>
      </trkpt>
      <trkpt lat="45.38133" lon="5.87563">
        <ele>1576.35</ele>
        <time>2015-08-22T07:01:58Z</time>
      </trkpt>
      <trkpt lat="45.38152" lon="5.87562">
        <ele>1582.7</ele>
        <time>2015-08-22T07:02:22Z</time>
      </trkpt>
      <trkpt lat="45.3817" lon="5.87565">
        <ele>1585.02</ele>
        <time>2015-08-22T07:02:46Z</time>
      </trkpt>
      <trkpt lat="45.38188" lon="5.87564">
        <ele>1592.49</ele>
        <time>2015-08-22T07:03:00Z</time>
      </trkpt>
      <trkpt lat="45.38206" lon="5.87568">
        <ele>1603.67</ele>
        <time>2015-08-22T07:03:25Z</time>
      </trkpt>
      <trkpt lat="45.38224" lon="5.87571">
        <ele>1605.13</ele>
        <time>2015-08-22T07:05:19Z</time>
      </trkpt>
      <trkpt lat="45.38205" lon="5.87564">
        <ele>1613.04</ele>
        <time>2015-08-22T07:05:53Z</time>
      </trkpt>
      <trkpt lat="45.38188" lon="5.87572">
        <ele>1617.15</ele>
        <time>2015-08-22T07:06:16Z</time>
      </trkpt>
      <trkpt lat="45.38171" lon="5.87583">
        <ele>1620.39</ele>
        <time>2015-08-22T07:06:44Z</time>
      </trkpt>
      <trkpt lat="45.38154" lon="5.87592">
        <ele>1631.33</ele>
        <time>2015-08-22T07:07:14Z</time>
      </trkpt>
      <trkpt lat="45.38138" lon="5.87605">
        <ele>1630.94</ele>
        <time>2015-08-22T07:07:32Z</time>
      </trkpt>
      <trkpt lat="45.38124" lon="5.87622">
        <ele>1632.82</ele>
        <time>2015-08-22T07:08:00Z</time>
      </trkpt>
      <trkpt lat="45.3813" lon="5.87646">
        <ele>1641.82</ele>
        <time>2015-08-22T07:09:16Z</time>
      </trkpt>
      <trkpt lat="45.38147" lon="5.87657">
        <ele>1645.69</ele>
        <time>2015-08-22T07:09:39Z</time>
      </trkpt>
      <trkpt lat="45.38132" lon="5.87674">
        <ele>1658.87</ele>
        <time>2015-08-22T07:10:59Z</time>
      </trkpt>
      <trkpt lat="45.38115" lon="5.87684">
        <ele>1659.9</ele>
        <time>2015-08-22T07:11:17Z</time>
      </trkpt>
      <trkpt lat="45.38097" lon="5.87689">
        <ele>1662.81</ele>
        <time>2015-08-22T07:11:41Z</time>
      </trkpt>
      <trkpt lat="45.38082" lon="5.87705">
        <ele>1659.88</ele>
        <time>2015-08-22T07:12:02Z</time>
      </trkpt>
      <trkpt lat="45.38065" lon="5.87715">
        <ele>1661.66</ele>
        <time>2015-08-22T07:12:45Z</time>
      </trkpt>
      <trkpt lat="45.38048" lon="5.87724">
        <ele>1669.88</ele>
        <time>2015-08-22T07:14:04Z</time>
      </trkpt>
      <trkpt lat="45.38059" lon="5.87745">
        <ele>1663.99</ele>
        <time>2015-08-22T07:14:24Z</time>
      </trkpt>
      <trkpt lat="45.38074" lon="5.87758">
        <ele>1671</ele>
        <time>2015-08-22T07:14:43Z</time>
      </trkpt>
      <trkpt lat="45.38092" lon="5.87766">
        <ele>1679.88</ele>
        <time>2015-08-22T07:15:16Z</time>
      </trkpt>
      <trkpt lat="45.3811" lon="5.87772">
        <ele>1687.51</ele>
        <time>2015-08-22T07:15:36Z</time>
      </trkpt>
      <trkpt lat="45.38129" lon="5.87775">
        <ele>1690.91</ele>
        <time>2015-08-22T07:16:06Z</time>
      </trkpt>
      <trkpt lat="45.38148" lon="5.87775">
        <ele>1691.68</ele>
        <time>2015-08-22T07:16:19Z</time>
      </trkpt>
      <trkpt lat="45.38167" lon="5.8777">
        <ele>1698.5</ele>
        <time>2015-08-22T07:16:36Z</time>
      </trkpt>
      <trkpt lat="45.38185" lon="5.87767">
        <ele>1694.74</ele>
        <time>2015-08-22T07:16:50Z</time>
      </trkpt>
      <trkpt lat="45.38203" lon="5.87772">
        <ele>1685.8</ele>
        <time>2015-08-22T07:17:24Z</time>
      </trkpt>
      <trkpt lat="45.38222" lon="5.87768">
        <ele>1687.32</ele>
        <time>2015-08-22T07:17:39Z</time>
      </trkpt>
      <trkpt lat="45.38234" lon="5.87749">
        <ele>1695.08</ele>
        <time>2015-08-22T07:17:55Z</time>
      </trkpt>
      <trkpt lat="45.38252" lon="5.8775">
        <ele>1695.89</ele>
        <time>2015-08-22T07:18:12Z</time>
      </trkpt>
      <trkpt lat="45.3827" lon="5.87756">
        <ele>1705.03</ele>
        <time>2015-08-22T07:19:57Z</time>
      </trkpt>
      <trkpt lat="45.38288" lon="5.8775">
        <ele>1695.84</ele>
        <time>2015-08-22T07:20:18Z</time>
      </trkpt>
      <trkpt lat="45.38304" lon="5.8776">
        <ele>1692.44</ele>
        <time>2015-08-22T07:22:29Z</time>
      </trkpt>
      <trkpt lat="45.38322" lon="5.87768">
        <ele>1686.26</ele>
        <time>2015-08-22T07:23:04Z</time>
      </trkpt>
      <trkpt lat="45.3834" lon="5.87766">
        <ele>1686.95</ele>
        <time>2015-08-22T07:23:39Z</time>
      </trkpt>
      <trkpt lat="45.38351" lon="5.87786">
        <ele>1667.4</ele>
        <time>2015-08-22T07:26:05Z</time>
      </trkpt>
      <trkpt lat="45.38364" lon="5.87806">
        <ele>1663.3</ele>
        <time>2015-08-22T07:26:40Z</time>
      </trkpt>
      <trkpt lat="45.3836" lon="5.87832">
        <ele>1648.22</ele>
        <time>2015-08-22T07:27:00Z</time>
      </trkpt>
      <trkpt lat="45.38378" lon="5.87839">
        <ele>1649.4</ele>
        <time>2015-08-22T07:27:37Z</time>
      </trkpt>
      <trkpt lat="45.38394" lon="5.87853">
        <ele>1641.61</ele>
        <time>2015-08-22T07:28:27Z</time>
      </trkpt>
      <trkpt lat="45.38411" lon="5.87865">
        <ele>1633.11</ele>
        <time>2015-08-22T07:29:08Z</time>
      </trkpt>
      <trkpt lat="45.38414" lon="5.8789">
        <ele>1628.13</ele>
        <time>2015-08-22T07:30:11Z</time>
      </trkpt>
      <trkpt lat="45.38413" lon="5.87916">
        <ele>1646.18</ele>
        <time>2015-08-22T07:31:31Z</time>
      </trkpt>
      <trkpt lat="45.38395" lon="5.87918">
        <ele>1680.67</ele>
        <time>2015-08-22T07:33:58Z</time>
      </trkpt>
      <trkpt lat="45.38386" lon="5.87943">
        <ele>1680.84</ele>
        <time>2015-08-22T07:34:43Z</time>
      </trkpt>
      <trkpt lat="45.38384" lon="5.87968">
        <ele>1685.35</ele>
        <time>2015-08-22T07:35:59Z</time>
      </trkpt>
      <trkpt lat="45.38405" lon="5.8797">
        <ele>1676.96</ele>
        <time>2015-08-22T07:36:12Z</time>
      </trkpt>
      <trkpt lat="45.38424" lon="5.87971">
        <ele>1683.52</ele>
        <time>2015-08-22T07:37:03Z</time>
      </trkpt>
      <trkpt lat="45.38421" lon="5.87998">
        <ele>1702.1</ele>
        <time>2015-08-22T07:40:14Z</time>
      </trkpt>
      <trkpt lat="45.38429" lon="5.88021">
        <ele>1741.71</ele>
        <time>2015-08-22T07:42:35Z</time>
      </trkpt>
      <trkpt lat="45.3843" lon="5.88047">
        <ele>1757.38</ele>
        <time>2015-08-22T07:45:26Z</time>
      </trkpt>
      <trkpt lat="45.38412" lon="5.88044">
        <ele>1777.57</ele>
        <time>2015-08-22T07:50:02Z</time>
      </trkpt>
      <trkpt lat="45.38394" lon="5.88044">
        <ele>1773.85</ele>
        <time>2015-08-22T07:51:21Z</time>
      </trkpt>
      <trkpt lat="45.38376" lon="5.88035">
        <ele>1771.83</ele>
        <time>2015-08-22T07:51:51Z</time>
      </trkpt>
      <trkpt lat="45.38367" lon="5.88013">
        <ele>1788.34</ele>
        <time>2015-08-22T07:52:42Z</time>
      </trkpt>
      <trkpt lat="45.38348" lon="5.88011">
        <ele>1780.35</ele>
        <time>2015-08-22T07:53:17Z</time>
      </trkpt>
      <trkpt lat="45.3833" lon="5.88003">
        <ele>1785.94</ele>
        <time>2015-08-22T07:54:14Z</time>
      </trkpt>
      <trkpt lat="45.38319" lon="5.87984">
        <ele>1810.2</ele>
        <time>2015-08-22T07:55:48Z</time>
      </trkpt>
      <trkpt lat="45.38327" lon="5.87961">
        <ele>1820.81</ele>
        <time>2015-08-22T07:56:44Z</time>
      </trkpt>
      <trkpt lat="45.38311" lon="5.87948">
        <ele>1817.75</ele>
        <time>2015-08-22T07:57:54Z</time>
      </trkpt>
      <trkpt lat="45.38294" lon="5.87944">
        <ele>1834.81</ele>
        <time>2015-08-22T08:01:02Z</time>
      </trkpt>
      <trkpt lat="45.3828" lon="5.87927">
        <ele>1843.27</ele>
        <time>2015-08-22T08:02:20Z</time>
      </trkpt>
      <trkpt lat="45.38262" lon="5.87919">
        <ele>1847.05</ele>
        <time>2015-08-22T08:02:47Z</time>
      </trkpt>
      <trkpt lat="45.38244" lon="5.87918">
        <ele>1852.45</ele>
        <time>2015-08-22T08:03:30Z</time>
      </trkpt>
      <trkpt lat="45.3823" lon="5.87901">
        <ele>1856.81</ele>
        <time>2015-08-22T08:04:19Z</time>
      </trkpt>
      <trkpt lat="45.38215" lon="5.87883">
        <ele>1858.86</ele>
        <time>2015-08-22T08:04:36Z</time>
      </trkpt>
      <trkpt lat="45.38197" lon="5.87892">
        <ele>1855.84</ele>
        <time>2015-08-22T08:04:59Z</time>
      </trkpt>
      <trkpt lat="45.38179" lon="5.879">
        <ele>1856.8</ele>
        <time>2015-08-22T08:05:20Z</time>
      </trkpt>
      <trkpt lat="45.38161" lon="5.879">
        <ele>1862.38</ele>
        <time>2015-08-22T08:06:09Z</time>
      </trkpt>
      <trkpt lat="45.38143" lon="5.87891">
        <ele>1861.9</ele>
        <time>2015-08-22T08:06:29Z</time>
      </trkpt>
      <trkpt lat="45.38126" lon="5.87884">
        <ele>1863.09</ele>
        <time>2015-08-22T08:06:51Z</time>
      </trkpt>
      <trkpt lat="45.38108" lon="5.87893">
        <ele>1865.09</ele>
        <time>2015-08-22T08:07:29Z</time>
      </trkpt>
      <trkpt lat="45.3809" lon="5.87893">
        <ele>1862.51</ele>
        <time>2015-08-22T08:07:56Z</time>
      </trkpt>
      <trkpt lat="45.38074" lon="5.87882">
        <ele>1869.44</ele>
        <time>2015-08-22T08:08:26Z</time>
      </trkpt>
      <trkpt lat="45.38055" lon="5.87878">
        <ele>1869.63</ele>
        <time>2015-08-22T08:08:57Z</time>
      </trkpt>
      <trkpt lat="45.38038" lon="5.87886">
        <ele>1873.64</ele>
        <time>2015-08-22T08:10:19Z</time>
      </trkpt>
      <trkpt lat="45.3802" lon="5.87882">
        <ele>1874.01</ele>
        <time>2015-08-22T08:10:38Z</time>
      </trkpt>
      <trkpt lat="45.38002" lon="5.87879">
        <ele>1870.32</ele>
        <time>2015-08-22T08:10:55Z</time>
      </trkpt>
      <trkpt lat="45.37988" lon="5.87898">
        <ele>1861.67</ele>
        <time>2015-08-22T08:11:11Z</time>
      </trkpt>
      <trkpt lat="45.37971" lon="5.87899">
        <ele>1871.88</ele>
        <time>2015-08-22T08:13:18Z</time>
      </trkpt>
      <trkpt lat="45.37952" lon="5.87893">
        <ele>1872.25</ele>
        <time>2015-08-22T08:14:19Z</time>
      </trkpt>
      <trkpt lat="45.37935" lon="5.87886">
        <ele>1874.03</ele>
        <time>2015-08-22T08:15:17Z</time>
      </trkpt>
      <trkpt lat="45.37918" lon="5.87898">
        <ele>1862.77</ele>
        <time>2015-08-22T08:18:40Z</time>
      </trkpt>
      <trkpt lat="45.37899" lon="5.87894">
        <ele>1860.17</ele>
        <time>2015-08-22T08:19:07Z</time>
      </trkpt>
      <trkpt lat="45.37882" lon="5.87883">
        <ele>1868.86</ele>
        <time>2015-08-22T08:19:55Z</time>
      </trkpt>
      <trkpt lat="45.37864" lon="5.87884">
        <ele>1864.86</ele>
        <time>2015-08-22T08:20:24Z</time>
      </trkpt>
      <trkpt lat="45.37846" lon="5.87885">
        <ele>1866.4</ele>
        <time>2015-08-22T08:20:49Z</time>
      </trkpt>
      <trkpt lat="45.37828" lon="5.87887">
        <ele>1864.66</ele>
        <time>2015-08-22T08:22:37Z</time>
      </trkpt>
      <trkpt lat="45.3781" lon="5.87892">
        <ele>1861.62</ele>
        <time>2015-08-22T08:23:47Z</time>
      </trkpt>
      <trkpt lat="45.37792" lon="5.87898">
        <ele>1856.53</ele>
        <time>2015-08-22T08:24:24Z</time>
      </trkpt>
      <trkpt lat="45.37774" lon="5.87902">
        <ele>1860.12</ele>
        <time>2015-08-22T08:24:57Z</time>
      </trkpt>
      <trkpt lat="45.37758" lon="5.87915">
        <ele>1863.13</ele>
        <time>2015-08-22T08:25:27Z</time>
      </trkpt>
      <trkpt lat="45.37743" lon="5.8793">
        <ele>1866.87</ele>
        <time>2015-08-22T08:26:06Z</time>
      </trkpt>
      <trkpt lat="45.37724" lon="5.8793">
        <ele>1868.21</ele>
        <time>2015-08-22T08:26:42Z</time>
      </trkpt>
      <trkpt lat="45.37709" lon="5.87943">
        <ele>1867.49</ele>
        <time>2015-08-22T08:27:23Z</time>
      </trkpt>
      <trkpt lat="45.37694" lon="5.87959">
        <ele>1855.8</ele>
        <time>2015-08-22T08:27:36Z</time>
      </trkpt>
      <trkpt lat="45.37676" lon="5.8796">
        <ele>1861.69</ele>
        <time>2015-08-22T08:27:53Z</time>
      </trkpt>
      <trkpt lat="45.37657" lon="5.87957">
        <ele>1868.34</ele>
        <time>2015-08-22T08:28:14Z</time>
      </trkpt>
      <trkpt lat="45.37638" lon="5.87959">
        <ele>1868.68</ele>
        <time>2015-08-22T08:29:22Z</time>
      </trkpt>
      <trkpt lat="45.3762" lon="5.87964">
        <ele>1874.88</ele>
        <time>2015-08-22T08:29:50Z</time>
      </trkpt>
      <trkpt lat="45.37601" lon="5.87962">
        <ele>1879.34</ele>
        <time>2015-08-22T08:30:06Z</time>
      </trkpt>
      <trkpt lat="45.37582" lon="5.87957">
        <ele>1877.63</ele>
        <time>2015-08-22T08:30:23Z</time>
      </trkpt>
      <trkpt lat="45.37564" lon="5.87958">
        <ele>1876.51</ele>
        <time>2015-08-22T08:31:01Z</time>
      </trkpt>
      <trkpt lat="45.37546" lon="5.87962">
        <ele>1875.29</ele>
        <time>2015-08-22T08:31:58Z</time>
      </trkpt>
      <trkpt lat="45.37535" lon="5.87941">
        <ele>1883.19</ele>
        <time>2015-08-22T08:32:15Z</time>
      </trkpt>
      <trkpt lat="45.37522" lon="5.87958">
        <ele>1871.77</ele>
        <time>2015-08-22T08:32:30Z</time>
      </trkpt>
      <trkpt lat="45.37504" lon="5.87964">
        <ele>1871.28</ele>
        <time>2015-08-22T08:32:46Z</time>
      </trkpt>
      <trkpt lat="45.37486" lon="5.87958">
        <ele>1877.18</ele>
        <time>2015-08-22T08:33:06Z</time>
      </trkpt>
      <trkpt lat="45.37467" lon="5.87962">
        <ele>1874.53</ele>
        <time>2015-08-22T08:34:37Z</time>
      </trkpt>
      <trkpt lat="45.37457" lon="5.87984">
        <ele>1860.47</ele>
        <time>2015-08-22T08:34:52Z</time>
      </trkpt>
      <trkpt lat="45.37443" lon="5.88001">
        <ele>1846.47</ele>
        <time>2015-08-22T08:35:13Z</time>
      </trkpt>
      <trkpt lat="45.37425" lon="5.88011">
        <ele>1840.56</ele>
        <time>2015-08-22T08:35:34Z</time>
      </trkpt>
      <trkpt lat="45.37414" lon="5.88031">
        <ele>1830.16</ele>
        <time>2015-08-22T08:36:10Z</time>
      </trkpt>
      <trkpt lat="45.37394" lon="5.88034">
        <ele>1828.81</ele>
        <time>2015-08-22T08:37:19Z</time>
      </trkpt>
      <trkpt lat="45.37376" lon="5.88038">
        <ele>1818.57</ele>
        <time>2015-08-22T08:37:37Z</time>
      </trkpt>
      <trkpt lat="45.37359" lon="5.88027">
        <ele>1832.8</ele>
        <time>2015-08-22T08:37:51Z</time>
      </trkpt>
      <trkpt lat="45.37343" lon="5.88017">
        <ele>1851.33</ele>
        <time>2015-08-22T08:38:06Z</time>
      </trkpt>
      <trkpt lat="45.37324" lon="5.88011">
        <ele>1861</ele>
        <time>2015-08-22T08:38:37Z</time>
      </trkpt>
      <trkpt lat="45.37308" lon="5.88024">
        <ele>1859.4</ele>
        <time>2015-08-22T08:39:13Z</time>
      </trkpt>
      <trkpt lat="45.37291" lon="5.88018">
        <ele>1867.73</ele>
        <time>2015-08-22T08:39:33Z</time>
      </trkpt>
      <trkpt lat="45.37272" lon="5.88014">
        <ele>1872.52</ele>
        <time>2015-08-22T08:40:18Z</time>
      </trkpt>
      <trkpt lat="45.37254" lon="5.88014">
        <ele>1876.23</ele>
        <time>2015-08-22T08:40:40Z</time>
      </trkpt>
      <trkpt lat="45.37236" lon="5.88005">
        <ele>1882.65</ele>
        <time>2015-08-22T08:41:04Z</time>
      </trkpt>
      <trkpt lat="45.37218" lon="5.88007">
        <ele>1883.91</ele>
        <time>2015-08-22T08:41:25Z</time>
      </trkpt>
      <trkpt lat="45.372" lon="5.88008">
        <ele>1883.89</ele>
        <time>2015-08-22T08:41:41Z</time>
      </trkpt>
      <trkpt lat="45.37182" lon="5.88002">
        <ele>1884.42</ele>
        <time>2015-08-22T08:42:07Z</time>
      </trkpt>
      <trkpt lat="45.37164" lon="5.87996">
        <ele>1882.05</ele>
        <time>2015-08-22T08:43:02Z</time>
      </trkpt>
      <trkpt lat="45.3718" lon="5.88008">
        <ele>1890.49</ele>
        <time>2015-08-22T08:44:05Z</time>
      </trkpt>
      <trkpt lat="45.37164" lon="5.88019">
        <ele>1878.89</ele>
        <time>2015-08-22T08:47:01Z</time>
      </trkpt>
      <trkpt lat="45.37153" lon="5.87997">
        <ele>1883.12</ele>
        <time>2015-08-22T08:49:42Z</time>
      </trkpt>
      <trkpt lat="45.37135" lon="5.87992">
        <ele>1876.64</ele>
        <time>2015-08-22T08:50:17Z</time>
      </trkpt>
      <trkpt lat="45.37119" lon="5.87982">
        <ele>1870.22</ele>
        <time>2015-08-22T08:50:43Z</time>
      </trkpt>
      <trkpt lat="45.37101" lon="5.87975">
        <ele>1861.28</ele>
        <time>2015-08-22T08:52:19Z</time>
      </trkpt>
      <trkpt lat="45.37088" lon="5.87994">
        <ele>1850.44</ele>
        <time>2015-08-22T08:54:19Z</time>
      </trkpt>
      <trkpt lat="45.37078" lon="5.88015">
        <ele>1839.91</ele>
        <time>2015-08-22T08:55:21Z</time>
      </trkpt>
      <trkpt lat="45.37074" lon="5.8804">
        <ele>1825.41</ele>
        <time>2015-08-22T08:56:15Z</time>
      </trkpt>
      <trkpt lat="45.37067" lon="5.88064">
        <ele>1810.76</ele>
        <time>2015-08-22T08:57:16Z</time>
      </trkpt>
      <trkpt lat="45.37052" lon="5.88078">
        <ele>1796.39</ele>
        <time>2015-08-22T08:58:45Z</time>
      </trkpt>
      <trkpt lat="45.37045" lon="5.88102">
        <ele>1785.48</ele>
        <time>2015-08-22T08:59:47Z</time>
      </trkpt>
      <trkpt lat="45.37033" lon="5.88121">
        <ele>1774.54</ele>
        <time>2015-08-22T09:02:39Z</time>
      </trkpt>
      <trkpt lat="45.37025" lon="5.88144">
        <ele>1762.22</ele>
        <time>2015-08-22T09:04:34Z</time>
      </trkpt>
      <trkpt lat="45.3701" lon="5.8816">
        <ele>1746.77</ele>
        <time>2015-08-22T09:07:01Z</time>
      </trkpt>
      <trkpt lat="45.37006" lon="5.88185">
        <ele>1740.82</ele>
        <time>2015-08-22T09:08:24Z</time>
      </trkpt>
      <trkpt lat="45.36999" lon="5.88209">
        <ele>1730.03</ele>
        <time>2015-08-22T09:11:11Z</time>
      </trkpt>
      <trkpt lat="45.36981" lon="5.88211">
        <ele>1723.01</ele>
        <time>2015-08-22T09:12:13Z</time>
      </trkpt>
      <trkpt lat="45.36966" lon="5.88227">
        <ele>1712.81</ele>
        <time>2015-08-22T09:13:50Z</time>
      </trkpt>
      <trkpt lat="45.36952" lon="5.88243">
        <ele>1703.42</ele>
        <time>2015-08-22T09:14:57Z</time>
      </trkpt>
      <trkpt lat="45.36945" lon="5.88267">
        <ele>1696.91</ele>
        <time>2015-08-22T09:16:26Z</time>
      </trkpt>
      <trkpt lat="45.36942" lon="5.88292">
        <ele>1691.87</ele>
        <time>2015-08-22T09:17:49Z</time>
      </trkpt>
      <trkpt lat="45.3694" lon="5.88318">
        <ele>1690.34</ele>
        <time>2015-08-22T09:18:53Z</time>
      </trkpt>
      <trkpt lat="45.36943" lon="5.88344">
        <ele>1695.99</ele>
        <time>2015-08-22T09:19:30Z</time>
      </trkpt>
      <trkpt lat="45.36938" lon="5.8837">
        <ele>1688.11</ele>
        <time>2015-08-22T09:33:55Z</time>
      </trkpt>
      <trkpt lat="45.3692" lon="5.88374">
        <ele>1682.37</ele>
        <time>2015-08-22T09:34:33Z</time>
      </trkpt>
      <trkpt lat="45.36901" lon="5.88378">
        <ele>1683.72</ele>
        <time>2015-08-22T09:34:42Z</time>
      </trkpt>
      <trkpt lat="45.36896" lon="5.88403">
        <ele>1682.62</ele>
        <time>2015-08-22T09:34:56Z</time>
      </trkpt>
      <trkpt lat="45.36898" lon="5.88429">
        <ele>1681.04</ele>
        <time>2015-08-22T09:35:19Z</time>
      </trkpt>
      <trkpt lat="45.369" lon="5.88455">
        <ele>1677.81</ele>
        <time>2015-08-22T09:35:37Z</time>
      </trkpt>
      <trkpt lat="45.36883" lon="5.88463">
        <ele>1673.41</ele>
        <time>2015-08-22T09:36:15Z</time>
      </trkpt>
      <trkpt lat="45.36865" lon="5.88467">
        <ele>1668.04</ele>
        <time>2015-08-22T09:36:29Z</time>
      </trkpt>
      <trkpt lat="45.36847" lon="5.88477">
        <ele>1662.03</ele>
        <time>2015-08-22T09:36:46Z</time>
      </trkpt>
      <trkpt lat="45.36829" lon="5.88477">
        <ele>1663.66</ele>
        <time>2015-08-22T09:36:59Z</time>
      </trkpt>
      <trkpt lat="45.36811" lon="5.88482">
        <ele>1665.83</ele>
        <time>2015-08-22T09:37:28Z</time>
      </trkpt>
      <trkpt lat="45.36793" lon="5.88488">
        <ele>1664.6</ele>
        <time>2015-08-22T09:37:43Z</time>
      </trkpt>
      <trkpt lat="45.36775" lon="5.88491">
        <ele>1650.92</ele>
        <time>2015-08-22T09:38:08Z</time>
      </trkpt>
      <trkpt lat="45.36757" lon="5.88488">
        <ele>1647.94</ele>
        <time>2015-08-22T09:38:36Z</time>
      </trkpt>
      <trkpt lat="45.36751" lon="5.88513">
        <ele>1647.42</ele>
        <time>2015-08-22T09:39:01Z</time>
      </trkpt>
      <trkpt lat="45.3675" lon="5.88539">
        <ele>1643.58</ele>
        <time>2015-08-22T09:39:19Z</time>
      </trkpt>
      <trkpt lat="45.36753" lon="5.88565">
        <ele>1634.34</ele>
        <time>2015-08-22T09:39:38Z</time>
      </trkpt>
      <trkpt lat="45.36745" lon="5.8859">
        <ele>1612.96</ele>
        <time>2015-08-22T09:40:08Z</time>
      </trkpt>
      <trkpt lat="45.36735" lon="5.88613">
        <ele>1610.68</ele>
        <time>2015-08-22T09:40:29Z</time>
      </trkpt>
      <trkpt lat="45.36723" lon="5.88631">
        <ele>1603.64</ele>
        <time>2015-08-22T09:40:59Z</time>
      </trkpt>
      <trkpt lat="45.36704" lon="5.88632">
        <ele>1603.9</ele>
        <time>2015-08-22T09:41:15Z</time>
      </trkpt>
      <trkpt lat="45.36685" lon="5.88628">
        <ele>1599.65</ele>
        <time>2015-08-22T09:41:29Z</time>
      </trkpt>
      <trkpt lat="45.36666" lon="5.88623">
        <ele>1601.11</ele>
        <time>2015-08-22T09:41:43Z</time>
      </trkpt>
      <trkpt lat="45.36648" lon="5.88616">
        <ele>1602.94</ele>
        <time>2015-08-22T09:42:00Z</time>
      </trkpt>
      <trkpt lat="45.36632" lon="5.88602">
        <ele>1599.07</ele>
        <time>2015-08-22T09:42:15Z</time>
      </trkpt>
      <trkpt lat="45.36615" lon="5.8859">
        <ele>1599.9</ele>
        <time>2015-08-22T09:42:30Z</time>
      </trkpt>
      <trkpt lat="45.36598" lon="5.88578">
        <ele>1597.13</ele>
        <time>2015-08-22T09:42:43Z</time>
      </trkpt>
      <trkpt lat="45.36581" lon="5.88568">
        <ele>1596.14</ele>
        <time>2015-08-22T09:42:57Z</time>
      </trkpt>
      <trkpt lat="45.36563" lon="5.88559">
        <ele>1600.47</ele>
        <time>2015-08-22T09:43:13Z</time>
      </trkpt>
      <trkpt lat="45.36545" lon="5.88556">
        <ele>1603.42</ele>
        <time>2015-08-22T09:43:27Z</time>
      </trkpt>
      <trkpt lat="45.36527" lon="5.88552">
        <ele>1600.52</ele>
        <time>2015-08-22T09:43:38Z</time>
      </trkpt>
      <trkpt lat="45.36509" lon="5.88545">
        <ele>1598.43</ele>
        <time>2015-08-22T09:43:52Z</time>
      </trkpt>
      <trkpt lat="45.36491" lon="5.88538">
        <ele>1596.94</ele>
        <time>2015-08-22T09:44:05Z</time>
      </trkpt>
      <trkpt lat="45.36473" lon="5.88536">
        <ele>1596.63</ele>
        <time>2015-08-22T09:44:17Z</time>
      </trkpt>
      <trkpt lat="45.36455" lon="5.88529">
        <ele>1594.51</ele>
        <time>2015-08-22T09:44:28Z</time>
      </trkpt>
      <trkpt lat="45.36438" lon="5.88521">
        <ele>1595.38</ele>
        <time>2015-08-22T09:44:40Z</time>
      </trkpt>
      <trkpt lat="45.36419" lon="5.88516">
        <ele>1593.85</ele>
        <time>2015-08-22T09:44:52Z</time>
      </trkpt>
      <trkpt lat="45.36401" lon="5.88511">
        <ele>1593.1</ele>
        <time>2015-08-22T09:45:04Z</time>
      </trkpt>
      <trkpt lat="45.36387" lon="5.88495">
        <ele>1596.01</ele>
        <time>2015-08-22T09:45:18Z</time>
      </trkpt>
      <trkpt lat="45.3637" lon="5.88484">
        <ele>1604.7</ele>
        <time>2015-08-22T09:45:48Z</time>
      </trkpt>
      <trkpt lat="45.36352" lon="5.88481">
        <ele>1603.32</ele>
        <time>2015-08-22T09:46:00Z</time>
      </trkpt>
      <trkpt lat="45.36334" lon="5.88484">
        <ele>1608.1</ele>
        <time>2015-08-22T09:46:15Z</time>
      </trkpt>
      <trkpt lat="45.36315" lon="5.88485">
        <ele>1604.91</ele>
        <time>2015-08-22T09:46:40Z</time>
      </trkpt>
      <trkpt lat="45.36296" lon="5.8849">
        <ele>1600.84</ele>
        <time>2015-08-22T09:46:53Z</time>
      </trkpt>
      <trkpt lat="45.36283" lon="5.88508">
        <ele>1605.6</ele>
        <time>2015-08-22T09:47:20Z</time>
      </trkpt>
      <trkpt lat="45.36265" lon="5.88504">
        <ele>1615.51</ele>
        <time>2015-08-22T09:47:34Z</time>
      </trkpt>
      <trkpt lat="45.36246" lon="5.88499">
        <ele>1619.72</ele>
        <time>2015-08-22T09:47:52Z</time>
      </trkpt>
      <trkpt lat="45.36227" lon="5.88496">
        <ele>1618.97</ele>
        <time>2015-08-22T09:48:06Z</time>
      </trkpt>
      <trkpt lat="45.36209" lon="5.88499">
        <ele>1616.3</ele>
        <time>2015-08-22T09:48:23Z</time>
      </trkpt>
      <trkpt lat="45.36191" lon="5.88502">
        <ele>1610.3</ele>
        <time>2015-08-22T09:48:36Z</time>
      </trkpt>
      <trkpt lat="45.36173" lon="5.88495">
        <ele>1610.94</ele>
        <time>2015-08-22T09:48:52Z</time>
      </trkpt>
      <trkpt lat="45.36156" lon="5.88484">
        <ele>1626.44</ele>
        <time>2015-08-22T09:49:35Z</time>
      </trkpt>
      <trkpt lat="45.36138" lon="5.88479">
        <ele>1624.05</ele>
        <time>2015-08-22T09:49:47Z</time>
      </trkpt>
      <trkpt lat="45.36123" lon="5.88465">
        <ele>1626.29</ele>
        <time>2015-08-22T09:50:03Z</time>
      </trkpt>
      <trkpt lat="45.36106" lon="5.88453">
        <ele>1626.47</ele>
        <time>2015-08-22T09:50:18Z</time>
      </trkpt>
      <trkpt lat="45.36088" lon="5.88442">
        <ele>1625.56</ele>
        <time>2015-08-22T09:50:33Z</time>
      </trkpt>
      <trkpt lat="45.36071" lon="5.88434">
        <ele>1623.45</ele>
        <time>2015-08-22T09:50:47Z</time>
      </trkpt>
      <trkpt lat="45.36053" lon="5.88426">
        <ele>1619.92</ele>
        <time>2015-08-22T09:51:01Z</time>
      </trkpt>
      <trkpt lat="45.36037" lon="5.88412">
        <ele>1624.3</ele>
        <time>2015-08-22T09:51:18Z</time>
      </trkpt>
      <trkpt lat="45.3602" lon="5.88406">
        <ele>1624.97</ele>
        <time>2015-08-22T09:51:37Z</time>
      </trkpt>
      <trkpt lat="45.36001" lon="5.88402">
        <ele>1620.88</ele>
        <time>2015-08-22T09:51:50Z</time>
      </trkpt>
      <trkpt lat="45.35983" lon="5.884">
        <ele>1624.3</ele>
        <time>2015-08-22T09:52:07Z</time>
      </trkpt>
      <trkpt lat="45.35965" lon="5.88397">
        <ele>1624.74</ele>
        <time>2015-08-22T09:52:23Z</time>
      </trkpt>
      <trkpt lat="45.35946" lon="5.88398">
        <ele>1627.82</ele>
        <time>2015-08-22T09:52:38Z</time>
      </trkpt>
      <trkpt lat="45.35928" lon="5.88402">
        <ele>1634.7</ele>
        <time>2015-08-22T09:53:09Z</time>
      </trkpt>
      <trkpt lat="45.3591" lon="5.88397">
        <ele>1632.09</ele>
        <time>2015-08-22T09:53:21Z</time>
      </trkpt>
      <trkpt lat="45.35891" lon="5.88394">
        <ele>1626.36</ele>
        <time>2015-08-22T09:53:34Z</time>
      </trkpt>
      <trkpt lat="45.35873" lon="5.88392">
        <ele>1631.68</ele>
        <time>2015-08-22T09:53:52Z</time>
      </trkpt>
      <trkpt lat="45.35855" lon="5.88398">
        <ele>1632.74</ele>
        <time>2015-08-22T09:54:09Z</time>
      </trkpt>
      <trkpt lat="45.35837" lon="5.88408">
        <ele>1627.59</ele>
        <time>2015-08-22T09:54:25Z</time>
      </trkpt>
      <trkpt lat="45.3582" lon="5.88415">
        <ele>1623.98</ele>
        <time>2015-08-22T09:54:42Z</time>
      </trkpt>
      <trkpt lat="45.35802" lon="5.88422">
        <ele>1626.75</ele>
        <time>2015-08-22T09:54:59Z</time>
      </trkpt>
      <trkpt lat="45.35784" lon="5.88426">
        <ele>1633.99</ele>
        <time>2015-08-22T09:55:18Z</time>
      </trkpt>
      <trkpt lat="45.35767" lon="5.88439">
        <ele>1629.03</ele>
        <time>2015-08-22T09:55:37Z</time>
      </trkpt>
      <trkpt lat="45.35752" lon="5.88454">
        <ele>1631.3</ele>
        <time>2015-08-22T09:55:55Z</time>
      </trkpt>
      <trkpt lat="45.35734" lon="5.88458">
        <ele>1647.25</ele>
        <time>2015-08-22T09:56:54Z</time>
      </trkpt>
      <trkpt lat="45.35715" lon="5.88459">
        <ele>1647.06</ele>
        <time>2015-08-22T09:57:08Z</time>
      </trkpt>
      <trkpt lat="45.35696" lon="5.88458">
        <ele>1651.27</ele>
        <time>2015-08-22T09:57:25Z</time>
      </trkpt>
      <trkpt lat="45.35678" lon="5.88452">
        <ele>1654.26</ele>
        <time>2015-08-22T09:57:46Z</time>
      </trkpt>
      <trkpt lat="45.35662" lon="5.88439">
        <ele>1654.47</ele>
        <time>2015-08-22T09:58:04Z</time>
      </trkpt>
      <trkpt lat="45.35645" lon="5.88431">
        <ele>1653.2</ele>
        <time>2015-08-22T09:58:23Z</time>
      </trkpt>
      <trkpt lat="45.35627" lon="5.88423">
        <ele>1652.89</ele>
        <time>2015-08-22T09:58:38Z</time>
      </trkpt>
      <trkpt lat="45.35608" lon="5.8842">
        <ele>1656.5</ele>
        <time>2015-08-22T09:58:54Z</time>
      </trkpt>
      <trkpt lat="45.35593" lon="5.88405">
        <ele>1661.03</ele>
        <time>2015-08-22T09:59:14Z</time>
      </trkpt>
      <trkpt lat="45.35575" lon="5.88396">
        <ele>1659.76</ele>
        <time>2015-08-22T09:59:30Z</time>
      </trkpt>
      <trkpt lat="45.3556" lon="5.88382">
        <ele>1662</ele>
        <time>2015-08-22T09:59:48Z</time>
      </trkpt>
      <trkpt lat="45.35543" lon="5.88372">
        <ele>1660.87</ele>
        <time>2015-08-22T10:00:15Z</time>
      </trkpt>
      <trkpt lat="45.35527" lon="5.88359">
        <ele>1662.65</ele>
        <time>2015-08-22T10:00:34Z</time>
      </trkpt>
      <trkpt lat="45.35511" lon="5.88347">
        <ele>1670.2</ele>
        <time>2015-08-22T10:00:53Z</time>
      </trkpt>
      <trkpt lat="45.35497" lon="5.8833">
        <ele>1668.89</ele>
        <time>2015-08-22T10:01:08Z</time>
      </trkpt>
      <trkpt lat="45.35483" lon="5.88314">
        <ele>1669.07</ele>
        <time>2015-08-22T10:01:24Z</time>
      </trkpt>
      <trkpt lat="45.35466" lon="5.88305">
        <ele>1668.64</ele>
        <time>2015-08-22T10:01:40Z</time>
      </trkpt>
      <trkpt lat="45.3545" lon="5.88293">
        <ele>1676.17</ele>
        <time>2015-08-22T10:02:06Z</time>
      </trkpt>
      <trkpt lat="45.35434" lon="5.8828">
        <ele>1676.82</ele>
        <time>2015-08-22T10:02:28Z</time>
      </trkpt>
      <trkpt lat="45.35419" lon="5.88264">
        <ele>1680.98</ele>
        <time>2015-08-22T10:02:48Z</time>
      </trkpt>
      <trkpt lat="45.35402" lon="5.88256">
        <ele>1681.15</ele>
        <time>2015-08-22T10:03:02Z</time>
      </trkpt>
      <trkpt lat="45.35387" lon="5.88238">
        <ele>1684.49</ele>
        <time>2015-08-22T10:03:21Z</time>
      </trkpt>
      <trkpt lat="45.35379" lon="5.88214">
        <ele>1686.5</ele>
        <time>2015-08-22T10:03:41Z</time>
      </trkpt>
      <trkpt lat="45.35366" lon="5.88196">
        <ele>1689.96</ele>
        <time>2015-08-22T10:03:59Z</time>
      </trkpt>
      <trkpt lat="45.3535" lon="5.88183">
        <ele>1691.37</ele>
        <time>2015-08-22T10:04:22Z</time>
      </trkpt>
      <trkpt lat="45.35333" lon="5.88178">
        <ele>1687.55</ele>
        <time>2015-08-22T10:04:42Z</time>
      </trkpt>
      <trkpt lat="45.35317" lon="5.88165">
        <ele>1686.56</ele>
        <time>2015-08-22T10:05:26Z</time>
      </trkpt>
      <trkpt lat="45.35299" lon="5.88154">
        <ele>1686.22</ele>
        <time>2015-08-22T10:05:41Z</time>
      </trkpt>
      <trkpt lat="45.35281" lon="5.88153">
        <ele>1681.59</ele>
        <time>2015-08-22T10:05:54Z</time>
      </trkpt>
      <trkpt lat="45.35262" lon="5.88147">
        <ele>1693.4</ele>
        <time>2015-08-22T10:06:30Z</time>
      </trkpt>
      <trkpt lat="45.35244" lon="5.88149">
        <ele>1691.89</ele>
        <time>2015-08-22T10:06:51Z</time>
      </trkpt>
      <trkpt lat="45.35226" lon="5.88148">
        <ele>1692.13</ele>
        <time>2015-08-22T10:07:17Z</time>
      </trkpt>
      <trkpt lat="45.35207" lon="5.88148">
        <ele>1692.2</ele>
        <time>2015-08-22T10:07:34Z</time>
      </trkpt>
      <trkpt lat="45.35189" lon="5.88148">
        <ele>1694.38</ele>
        <time>2015-08-22T10:07:57Z</time>
      </trkpt>
      <trkpt lat="45.35171" lon="5.88147">
        <ele>1700.81</ele>
        <time>2015-08-22T10:08:23Z</time>
      </trkpt>
      <trkpt lat="45.35153" lon="5.88143">
        <ele>1703.4</ele>
        <time>2015-08-22T10:08:39Z</time>
      </trkpt>
      <trkpt lat="45.35137" lon="5.8813">
        <ele>1709.75</ele>
        <time>2015-08-22T10:09:08Z</time>
      </trkpt>
      <trkpt lat="45.35121" lon="5.88118">
        <ele>1711.75</ele>
        <time>2015-08-22T10:13:34Z</time>
      </trkpt>
      <trkpt lat="45.35102" lon="5.88122">
        <ele>1708.29</ele>
        <time>2015-08-22T10:13:47Z</time>
      </trkpt>
      <trkpt lat="45.35086" lon="5.88136">
        <ele>1703.56</ele>
        <time>2015-08-22T10:14:03Z</time>
      </trkpt>
      <trkpt lat="45.35074" lon="5.88155">
        <ele>1704.98</ele>
        <time>2015-08-22T10:14:25Z</time>
      </trkpt>
      <trkpt lat="45.35057" lon="5.88146">
        <ele>1704.23</ele>
        <time>2015-08-22T10:14:51Z</time>
      </trkpt>
      <trkpt lat="45.35044" lon="5.88127">
        <ele>1704.01</ele>
        <time>2015-08-22T10:15:09Z</time>
      </trkpt>
      <trkpt lat="45.35027" lon="5.88118">
        <ele>1697.93</ele>
        <time>2015-08-22T10:15:32Z</time>
      </trkpt>
      <trkpt lat="45.35013" lon="5.88099">
        <ele>1699.46</ele>
        <time>2015-08-22T10:15:57Z</time>
      </trkpt>
      <trkpt lat="45.34996" lon="5.88088">
        <ele>1694.4</ele>
        <time>2015-08-22T10:16:11Z</time>
      </trkpt>
      <trkpt lat="45.34978" lon="5.88078">
        <ele>1693.9</ele>
        <time>2015-08-22T10:16:33Z</time>
      </trkpt>
      <trkpt lat="45.34959" lon="5.88076">
        <ele>1693.55</ele>
        <time>2015-08-22T10:16:55Z</time>
      </trkpt>
      <trkpt lat="45.34941" lon="5.88077">
        <ele>1687.8</ele>
        <time>2015-08-22T10:17:09Z</time>
      </trkpt>
      <trkpt lat="45.34922" lon="5.8808">
        <ele>1687.6</ele>
        <time>2015-08-22T10:17:25Z</time>
      </trkpt>
      <trkpt lat="45.34904" lon="5.88078">
        <ele>1686.05</ele>
        <time>2015-08-22T10:17:40Z</time>
      </trkpt>
      <trkpt lat="45.34889" lon="5.88065">
        <ele>1694.54</ele>
        <time>2015-08-22T10:17:59Z</time>
      </trkpt>
      <trkpt lat="45.34872" lon="5.88056">
        <ele>1698.36</ele>
        <time>2015-08-22T10:18:17Z</time>
      </trkpt>
      <trkpt lat="45.34854" lon="5.88049">
        <ele>1705.47</ele>
        <time>2015-08-22T10:18:37Z</time>
      </trkpt>
      <trkpt lat="45.34837" lon="5.88042">
        <ele>1705.31</ele>
        <time>2015-08-22T10:18:54Z</time>
      </trkpt>
      <trkpt lat="45.34819" lon="5.88038">
        <ele>1700.96</ele>
        <time>2015-08-22T10:19:11Z</time>
      </trkpt>
      <trkpt lat="45.348" lon="5.88039">
        <ele>1702.15</ele>
        <time>2015-08-22T10:19:31Z</time>
      </trkpt>
      <trkpt lat="45.34781" lon="5.88037">
        <ele>1703.87</ele>
        <time>2015-08-22T10:19:51Z</time>
      </trkpt>
      <trkpt lat="45.34764" lon="5.88044">
        <ele>1708.36</ele>
        <time>2015-08-22T10:20:13Z</time>
      </trkpt>
      <trkpt lat="45.34746" lon="5.88041">
        <ele>1713.65</ele>
        <time>2015-08-22T10:20:39Z</time>
      </trkpt>
      <trkpt lat="45.34728" lon="5.88036">
        <ele>1720.62</ele>
        <time>2015-08-22T10:21:06Z</time>
      </trkpt>
      <trkpt lat="45.34712" lon="5.88022">
        <ele>1731.06</ele>
        <time>2015-08-22T10:21:28Z</time>
      </trkpt>
      <trkpt lat="45.34698" lon="5.88004">
        <ele>1735.69</ele>
        <time>2015-08-22T10:21:47Z</time>
      </trkpt>
      <trkpt lat="45.34681" lon="5.87993">
        <ele>1735.89</ele>
        <time>2015-08-22T10:22:05Z</time>
      </trkpt>
      <trkpt lat="45.34663" lon="5.87991">
        <ele>1747.31</ele>
        <time>2015-08-22T10:22:40Z</time>
      </trkpt>
      <trkpt lat="45.3465" lon="5.87974">
        <ele>1746.09</ele>
        <time>2015-08-22T10:23:00Z</time>
      </trkpt>
      <trkpt lat="45.34633" lon="5.87963">
        <ele>1749.69</ele>
        <time>2015-08-22T10:23:20Z</time>
      </trkpt>
      <trkpt lat="45.34616" lon="5.87953">
        <ele>1749.3</ele>
        <time>2015-08-22T10:23:36Z</time>
      </trkpt>
      <trkpt lat="45.34598" lon="5.87947">
        <ele>1751.06</ele>
        <time>2015-08-22T10:23:56Z</time>
      </trkpt>
      <trkpt lat="45.34586" lon="5.87928">
        <ele>1753.08</ele>
        <time>2015-08-22T10:24:17Z</time>
      </trkpt>
      <trkpt lat="45.34574" lon="5.87908">
        <ele>1764.96</ele>
        <time>2015-08-22T10:24:52Z</time>
      </trkpt>
      <trkpt lat="45.3456" lon="5.87891">
        <ele>1773.09</ele>
        <time>2015-08-22T10:25:15Z</time>
      </trkpt>
      <trkpt lat="45.3455" lon="5.87869">
        <ele>1776.72</ele>
        <time>2015-08-22T10:26:02Z</time>
      </trkpt>
      <trkpt lat="45.34552" lon="5.87843">
        <ele>1774.33</ele>
        <time>2015-08-22T10:26:22Z</time>
      </trkpt>
      <trkpt lat="45.3455" lon="5.87817">
        <ele>1775.37</ele>
        <time>2015-08-22T10:26:41Z</time>
      </trkpt>
      <trkpt lat="45.34549" lon="5.8779">
        <ele>1776.4</ele>
        <time>2015-08-22T10:27:07Z</time>
      </trkpt>
      <trkpt lat="45.34558" lon="5.87768">
        <ele>1782.68</ele>
        <time>2015-08-22T10:27:36Z</time>
      </trkpt>
      <trkpt lat="45.34547" lon="5.87748">
        <ele>1786.5</ele>
        <time>2015-08-22T10:28:26Z</time>
      </trkpt>
      <trkpt lat="45.3454" lon="5.87724">
        <ele>1795.35</ele>
        <time>2015-08-22T10:29:01Z</time>
      </trkpt>
      <trkpt lat="45.34529" lon="5.87703">
        <ele>1799.9</ele>
        <time>2015-08-22T10:30:03Z</time>
      </trkpt>
      <trkpt lat="45.34534" lon="5.87678">
        <ele>1814.22</ele>
        <time>2015-08-22T10:32:43Z</time>
      </trkpt>
      <trkpt lat="45.34528" lon="5.87654">
        <ele>1828.73</ele>
        <time>2015-08-22T10:34:04Z</time>
      </trkpt>
      <trkpt lat="45.34513" lon="5.87639">
        <ele>1827.81</ele>
        <time>2015-08-22T10:34:33Z</time>
      </trkpt>
      <trkpt lat="45.345" lon="5.87621">
        <ele>1832.1</ele>
        <time>2015-08-22T10:35:34Z</time>
      </trkpt>
      <trkpt lat="45.34485" lon="5.87604">
        <ele>1841.53</ele>
        <time>2015-08-22T10:35:58Z</time>
      </trkpt>
      <trkpt lat="45.34472" lon="5.87586">
        <ele>1848.18</ele>
        <time>2015-08-22T10:36:28Z</time>
      </trkpt>
      <trkpt lat="45.34457" lon="5.8757">
        <ele>1847.76</ele>
        <time>2015-08-22T10:37:04Z</time>
      </trkpt>
      <trkpt lat="45.34439" lon="5.87573">
        <ele>1858.37</ele>
        <time>2015-08-22T10:37:49Z</time>
      </trkpt>
      <trkpt lat="45.34421" lon="5.87567">
        <ele>1863.87</ele>
        <time>2015-08-22T10:38:21Z</time>
      </trkpt>
      <trkpt lat="45.34403" lon="5.87574">
        <ele>1873.25</ele>
        <time>2015-08-22T10:38:56Z</time>
      </trkpt>
      <trkpt lat="45.34385" lon="5.87572">
        <ele>1870.44</ele>
        <time>2015-08-22T10:39:11Z</time>
      </trkpt>
      <trkpt lat="45.34366" lon="5.87575">
        <ele>1880.39</ele>
        <time>2015-08-22T10:40:06Z</time>
      </trkpt>
      <trkpt lat="45.34349" lon="5.87563">
        <ele>1888.84</ele>
        <time>2015-08-22T10:40:44Z</time>
      </trkpt>
      <trkpt lat="45.34365" lon="5.8755">
        <ele>1902.39</ele>
        <time>2015-08-22T10:43:32Z</time>
      </trkpt>
      <trkpt lat="45.34381" lon="5.87534">
        <ele>1906.06</ele>
        <time>2015-08-22T10:43:49Z</time>
      </trkpt>
      <trkpt lat="45.34394" lon="5.87516">
        <ele>1901.72</ele>
        <time>2015-08-22T10:44:01Z</time>
      </trkpt>
      <trkpt lat="45.34376" lon="5.87528">
        <ele>1900.41</ele>
        <time>2015-08-22T10:46:45Z</time>
      </trkpt>
      <trkpt lat="45.34364" lon="5.87549">
        <ele>1895.9</ele>
        <time>2015-08-22T10:47:01Z</time>
      </trkpt>
      <trkpt lat="45.34349" lon="5.87565">
        <ele>1898.99</ele>
        <time>2015-08-22T10:49:19Z</time>
      </trkpt>
      <trkpt lat="45.34334" lon="5.87581">
        <ele>1894.01</ele>
        <time>2015-08-22T10:49:34Z</time>
      </trkpt>
      <trkpt lat="45.34319" lon="5.87596">
        <ele>1893.13</ele>
        <time>2015-08-22T10:49:48Z</time>
      </trkpt>
      <trkpt lat="45.34303" lon="5.87612">
        <ele>1890.16</ele>
        <time>2015-08-22T10:50:01Z</time>
      </trkpt>
      <trkpt lat="45.34288" lon="5.87628">
        <ele>1888.97</ele>
        <time>2015-08-22T10:50:18Z</time>
      </trkpt>
      <trkpt lat="45.34275" lon="5.87647">
        <ele>1888.38</ele>
        <time>2015-08-22T10:50:34Z</time>
      </trkpt>
      <trkpt lat="45.34269" lon="5.87623">
        <ele>1881.88</ele>
        <time>2015-08-22T10:51:08Z</time>
      </trkpt>
      <trkpt lat="45.34276" lon="5.87598">
        <ele>1878.28</ele>
        <time>2015-08-22T10:51:27Z</time>
      </trkpt>
      <trkpt lat="45.34284" lon="5.87573">
        <ele>1874.6</ele>
        <time>2015-08-22T10:51:45Z</time>
      </trkpt>
      <trkpt lat="45.34291" lon="5.87548">
        <ele>1870.42</ele>
        <time>2015-08-22T10:52:01Z</time>
      </trkpt>
      <trkpt lat="45.34273" lon="5.87553">
        <ele>1856.4</ele>
        <time>2015-08-22T10:52:31Z</time>
      </trkpt>
      <trkpt lat="45.34269" lon="5.87527">
        <ele>1855.42</ele>
        <time>2015-08-22T10:53:15Z</time>
      </trkpt>
      <trkpt lat="45.34277" lon="5.87504">
        <ele>1853.51</ele>
        <time>2015-08-22T10:53:30Z</time>
      </trkpt>
      <trkpt lat="45.34261" lon="5.87517">
        <ele>1839.9</ele>
        <time>2015-08-22T10:54:48Z</time>
      </trkpt>
      <trkpt lat="45.34243" lon="5.87527">
        <ele>1832.54</ele>
        <time>2015-08-22T10:55:06Z</time>
      </trkpt>
      <trkpt lat="45.34226" lon="5.87538">
        <ele>1827.95</ele>
        <time>2015-08-22T10:55:24Z</time>
      </trkpt>
      <trkpt lat="45.34228" lon="5.87513">
        <ele>1817.42</ele>
        <time>2015-08-22T10:56:42Z</time>
      </trkpt>
      <trkpt lat="45.34211" lon="5.87505">
        <ele>1803.93</ele>
        <time>2015-08-22T10:57:14Z</time>
      </trkpt>
      <trkpt lat="45.34211" lon="5.87478">
        <ele>1789.13</ele>
        <time>2015-08-22T10:57:46Z</time>
      </trkpt>
      <trkpt lat="45.34216" lon="5.87453">
        <ele>1787.42</ele>
        <time>2015-08-22T10:57:59Z</time>
      </trkpt>
      <trkpt lat="45.34222" lon="5.87428">
        <ele>1781.04</ele>
        <time>2015-08-22T10:58:14Z</time>
      </trkpt>
      <trkpt lat="45.34227" lon="5.87403">
        <ele>1775.13</ele>
        <time>2015-08-22T10:58:30Z</time>
      </trkpt>
      <trkpt lat="45.34208" lon="5.87406">
        <ele>1772.78</ele>
        <time>2015-08-22T10:58:56Z</time>
      </trkpt>
      <trkpt lat="45.34196" lon="5.87424">
        <ele>1771.81</ele>
        <time>2015-08-22T10:59:18Z</time>
      </trkpt>
      <trkpt lat="45.34181" lon="5.87441">
        <ele>1769.13</ele>
        <time>2015-08-22T10:59:58Z</time>
      </trkpt>
      <trkpt lat="45.34162" lon="5.87443">
        <ele>1753.28</ele>
        <time>2015-08-22T11:00:37Z</time>
      </trkpt>
      <trkpt lat="45.34148" lon="5.87459">
        <ele>1751.4</ele>
        <time>2015-08-22T11:01:00Z</time>
      </trkpt>
      <trkpt lat="45.34132" lon="5.8747">
        <ele>1748.14</ele>
        <time>2015-08-22T11:01:11Z</time>
      </trkpt>
      <trkpt lat="45.34114" lon="5.87476">
        <ele>1744.45</ele>
        <time>2015-08-22T11:01:28Z</time>
      </trkpt>
      <trkpt lat="45.34096" lon="5.87478">
        <ele>1739.37</ele>
        <time>2015-08-22T11:01:39Z</time>
      </trkpt>
      <trkpt lat="45.3408" lon="5.87491">
        <ele>1731.29</ele>
        <time>2015-08-22T11:01:53Z</time>
      </trkpt>
      <trkpt lat="45.34062" lon="5.87498">
        <ele>1727.21</ele>
        <time>2015-08-22T11:02:07Z</time>
      </trkpt>
      <trkpt lat="45.34044" lon="5.875">
        <ele>1721.39</ele>
        <time>2015-08-22T11:02:20Z</time>
      </trkpt>
      <trkpt lat="45.34046" lon="5.87475">
        <ele>1714.2</ele>
        <time>2015-08-22T11:02:53Z</time>
      </trkpt>
      <trkpt lat="45.34056" lon="5.87452">
        <ele>1714.1</ele>
        <time>2015-08-22T11:03:19Z</time>
      </trkpt>
      <trkpt lat="45.34067" lon="5.8743">
        <ele>1705.96</ele>
        <time>2015-08-22T11:03:31Z</time>
      </trkpt>
      <trkpt lat="45.34079" lon="5.87409">
        <ele>1704.5</ele>
        <time>2015-08-22T11:03:54Z</time>
      </trkpt>
      <trkpt lat="45.34091" lon="5.87389">
        <ele>1700.5</ele>
        <time>2015-08-22T11:04:06Z</time>
      </trkpt>
      <trkpt lat="45.34075" lon="5.87376">
        <ele>1688.59</ele>
        <time>2015-08-22T11:04:31Z</time>
      </trkpt>
      <trkpt lat="45.34057" lon="5.87381">
        <ele>1678.88</ele>
        <time>2015-08-22T11:04:45Z</time>
      </trkpt>
      <trkpt lat="45.34038" lon="5.87384">
        <ele>1675.06</ele>
        <time>2015-08-22T11:04:57Z</time>
      </trkpt>
      <trkpt lat="45.34021" lon="5.87375">
        <ele>1666.57</ele>
        <time>2015-08-22T11:05:11Z</time>
      </trkpt>
      <trkpt lat="45.34003" lon="5.8737">
        <ele>1658.35</ele>
        <time>2015-08-22T11:05:25Z</time>
      </trkpt>
      <trkpt lat="45.34015" lon="5.8735">
        <ele>1664.96</ele>
        <time>2015-08-22T11:06:06Z</time>
      </trkpt>
      <trkpt lat="45.3403" lon="5.87333">
        <ele>1663.44</ele>
        <time>2015-08-22T11:06:20Z</time>
      </trkpt>
      <trkpt lat="45.34043" lon="5.87316">
        <ele>1657.17</ele>
        <time>2015-08-22T11:06:34Z</time>
      </trkpt>
      <trkpt lat="45.34055" lon="5.87296">
        <ele>1652.01</ele>
        <time>2015-08-22T11:06:47Z</time>
      </trkpt>
      <trkpt lat="45.34064" lon="5.87274">
        <ele>1646.86</ele>
        <time>2015-08-22T11:07:07Z</time>
      </trkpt>
      <trkpt lat="45.34079" lon="5.8726">
        <ele>1649.42</ele>
        <time>2015-08-22T11:07:22Z</time>
      </trkpt>
      <trkpt lat="45.34084" lon="5.87235">
        <ele>1645.57</ele>
        <time>2015-08-22T11:07:41Z</time>
      </trkpt>
      <trkpt lat="45.34082" lon="5.87209">
        <ele>1638.05</ele>
        <time>2015-08-22T11:08:02Z</time>
      </trkpt>
      <trkpt lat="45.34096" lon="5.87191">
        <ele>1641.6</ele>
        <time>2015-08-22T11:08:42Z</time>
      </trkpt>
      <trkpt lat="45.34113" lon="5.87195">
        <ele>1641.24</ele>
        <time>2015-08-22T11:09:23Z</time>
      </trkpt>
      <trkpt lat="45.34132" lon="5.87203">
        <ele>1628.47</ele>
        <time>2015-08-22T11:10:25Z</time>
      </trkpt>
      <trkpt lat="45.34149" lon="5.8719">
        <ele>1626.31</ele>
        <time>2015-08-22T11:10:49Z</time>
      </trkpt>
      <trkpt lat="45.34164" lon="5.87176">
        <ele>1623.61</ele>
        <time>2015-08-22T11:11:01Z</time>
      </trkpt>
      <trkpt lat="45.3418" lon="5.87165">
        <ele>1620.43</ele>
        <time>2015-08-22T11:11:19Z</time>
      </trkpt>
      <trkpt lat="45.34195" lon="5.87147">
        <ele>1629.07</ele>
        <time>2015-08-22T11:11:34Z</time>
      </trkpt>
      <trkpt lat="45.34207" lon="5.87126">
        <ele>1631.72</ele>
        <time>2015-08-22T11:11:53Z</time>
      </trkpt>
      <trkpt lat="45.34212" lon="5.87101">
        <ele>1636.01</ele>
        <time>2015-08-22T11:12:05Z</time>
      </trkpt>
      <trkpt lat="45.34206" lon="5.87074">
        <ele>1640.94</ele>
        <time>2015-08-22T11:12:18Z</time>
      </trkpt>
      <trkpt lat="45.34204" lon="5.87047">
        <ele>1642.88</ele>
        <time>2015-08-22T11:12:46Z</time>
      </trkpt>
      <trkpt lat="45.342" lon="5.87021">
        <ele>1634.6</ele>
        <time>2015-08-22T11:12:59Z</time>
      </trkpt>
      <trkpt lat="45.34193" lon="5.86997">
        <ele>1623.78</ele>
        <time>2015-08-22T11:13:16Z</time>
      </trkpt>
      <trkpt lat="45.34194" lon="5.86971">
        <ele>1624.08</ele>
        <time>2015-08-22T11:13:30Z</time>
      </trkpt>
      <trkpt lat="45.34192" lon="5.86944">
        <ele>1620.64</ele>
        <time>2015-08-22T11:13:44Z</time>
      </trkpt>
      <trkpt lat="45.34195" lon="5.86918">
        <ele>1613.71</ele>
        <time>2015-08-22T11:14:00Z</time>
      </trkpt>
      <trkpt lat="45.34188" lon="5.86893">
        <ele>1614.93</ele>
        <time>2015-08-22T11:14:33Z</time>
      </trkpt>
      <trkpt lat="45.34177" lon="5.8687">
        <ele>1616.78</ele>
        <time>2015-08-22T11:14:51Z</time>
      </trkpt>
      <trkpt lat="45.3417" lon="5.86846">
        <ele>1613.73</ele>
        <time>2015-08-22T11:15:05Z</time>
      </trkpt>
      <trkpt lat="45.34179" lon="5.86823">
        <ele>1609.47</ele>
        <time>2015-08-22T11:15:20Z</time>
      </trkpt>
      <trkpt lat="45.34182" lon="5.86797">
        <ele>1604.94</ele>
        <time>2015-08-22T11:15:46Z</time>
      </trkpt>
      <trkpt lat="45.34192" lon="5.86775">
        <ele>1600.96</ele>
        <time>2015-08-22T11:15:59Z</time>
      </trkpt>
      <trkpt lat="45.342" lon="5.86751">
        <ele>1599.12</ele>
        <time>2015-08-22T11:16:12Z</time>
      </trkpt>
      <trkpt lat="45.34209" lon="5.86728">
        <ele>1597.26</ele>
        <time>2015-08-22T11:16:31Z</time>
      </trkpt>
      <trkpt lat="45.3422" lon="5.86707">
        <ele>1593.68</ele>
        <time>2015-08-22T11:16:49Z</time>
      </trkpt>
      <trkpt lat="45.34232" lon="5.86687">
        <ele>1586.99</ele>
        <time>2015-08-22T11:17:03Z</time>
      </trkpt>
      <trkpt lat="45.34248" lon="5.86671">
        <ele>1587.25</ele>
        <time>2015-08-22T11:17:16Z</time>
      </trkpt>
      <trkpt lat="45.34263" lon="5.86657">
        <ele>1579.68</ele>
        <time>2015-08-22T11:17:34Z</time>
      </trkpt>
      <trkpt lat="45.3428" lon="5.86643">
        <ele>1576.48</ele>
        <time>2015-08-22T11:17:49Z</time>
      </trkpt>
      <trkpt lat="45.34295" lon="5.8663">
        <ele>1579.07</ele>
        <time>2015-08-22T11:18:03Z</time>
      </trkpt>
      <trkpt lat="45.3431" lon="5.86615">
        <ele>1575.85</ele>
        <time>2015-08-22T11:18:18Z</time>
      </trkpt>
      <trkpt lat="45.34327" lon="5.86605">
        <ele>1574.62</ele>
        <time>2015-08-22T11:18:42Z</time>
      </trkpt>
      <trkpt lat="45.34342" lon="5.86591">
        <ele>1574.99</ele>
        <time>2015-08-22T11:18:55Z</time>
      </trkpt>
      <trkpt lat="45.34352" lon="5.86569">
        <ele>1571.79</ele>
        <time>2015-08-22T11:19:09Z</time>
      </trkpt>
      <trkpt lat="45.34367" lon="5.86555">
        <ele>1570.8</ele>
        <time>2015-08-22T11:19:22Z</time>
      </trkpt>
      <trkpt lat="45.34383" lon="5.8654">
        <ele>1567.29</ele>
        <time>2015-08-22T11:19:34Z</time>
      </trkpt>
      <trkpt lat="45.34395" lon="5.86521">
        <ele>1559.02</ele>
        <time>2015-08-22T11:19:50Z</time>
      </trkpt>
      <trkpt lat="45.34408" lon="5.86502">
        <ele>1553.07</ele>
        <time>2015-08-22T11:20:07Z</time>
      </trkpt>
      <trkpt lat="45.34423" lon="5.86487">
        <ele>1554.9</ele>
        <time>2015-08-22T11:20:18Z</time>
      </trkpt>
      <trkpt lat="45.34438" lon="5.86472">
        <ele>1548.52</ele>
        <time>2015-08-22T11:20:34Z</time>
      </trkpt>
      <trkpt lat="45.34457" lon="5.86466">
        <ele>1535.21</ele>
        <time>2015-08-22T11:20:55Z</time>
      </trkpt>
      <trkpt lat="45.34473" lon="5.86451">
        <ele>1536.95</ele>
        <time>2015-08-22T11:21:10Z</time>
      </trkpt>
      <trkpt lat="45.34491" lon="5.86449">
        <ele>1523.01</ele>
        <time>2015-08-22T11:21:29Z</time>
      </trkpt>
      <trkpt lat="45.34508" lon="5.86459">
        <ele>1519.66</ele>
        <time>2015-08-22T11:21:43Z</time>
      </trkpt>
      <trkpt lat="45.34524" lon="5.86472">
        <ele>1512.92</ele>
        <time>2015-08-22T11:21:58Z</time>
      </trkpt>
      <trkpt lat="45.34539" lon="5.86486">
        <ele>1505.97</ele>
        <time>2015-08-22T11:22:13Z</time>
      </trkpt>
      <trkpt lat="45.34555" lon="5.86497">
        <ele>1511.72</ele>
        <time>2015-08-22T11:22:25Z</time>
      </trkpt>
      <trkpt lat="45.34574" lon="5.86501">
        <ele>1502.12</ele>
        <time>2015-08-22T11:22:44Z</time>
      </trkpt>
      <trkpt lat="45.34592" lon="5.86501">
        <ele>1497.76</ele>
        <time>2015-08-22T11:23:03Z</time>
      </trkpt>
      <trkpt lat="45.34607" lon="5.86485">
        <ele>1503.62</ele>
        <time>2015-08-22T11:23:17Z</time>
      </trkpt>
      <trkpt lat="45.34626" lon="5.86481">
        <ele>1494.12</ele>
        <time>2015-08-22T11:23:32Z</time>
      </trkpt>
      <trkpt lat="45.34645" lon="5.86479">
        <ele>1485.75</ele>
        <time>2015-08-22T11:24:15Z</time>
      </trkpt>
      <trkpt lat="45.34659" lon="5.86463">
        <ele>1487.31</ele>
        <time>2015-08-22T11:24:46Z</time>
      </trkpt>
      <trkpt lat="45.34677" lon="5.86458">
        <ele>1486.45</ele>
        <time>2015-08-22T11:25:08Z</time>
      </trkpt>
      <trkpt lat="45.34694" lon="5.86469">
        <ele>1480.86</ele>
        <time>2015-08-22T11:25:28Z</time>
      </trkpt>
      <trkpt lat="45.34712" lon="5.8647">
        <ele>1483.44</ele>
        <time>2015-08-22T11:26:06Z</time>
      </trkpt>
      <trkpt lat="45.34729" lon="5.86482">
        <ele>1472.07</ele>
        <time>2015-08-22T11:26:51Z</time>
      </trkpt>
      <trkpt lat="45.34746" lon="5.86492">
        <ele>1469.38</ele>
        <time>2015-08-22T11:27:30Z</time>
      </trkpt>
      <trkpt lat="45.34763" lon="5.86503">
        <ele>1462.51</ele>
        <time>2015-08-22T11:27:52Z</time>
      </trkpt>
      <trkpt lat="45.34781" lon="5.86504">
        <ele>1454.87</ele>
        <time>2015-08-22T11:28:24Z</time>
      </trkpt>
      <trkpt lat="45.34799" lon="5.86512">
        <ele>1449.62</ele>
        <time>2015-08-22T11:28:42Z</time>
      </trkpt>
      <trkpt lat="45.34817" lon="5.86511">
        <ele>1445.96</ele>
        <time>2015-08-22T11:29:07Z</time>
      </trkpt>
      <trkpt lat="45.34835" lon="5.86509">
        <ele>1441.94</ele>
        <time>2015-08-22T11:29:26Z</time>
      </trkpt>
      <trkpt lat="45.34853" lon="5.86504">
        <ele>1435.83</ele>
        <time>2015-08-22T11:30:32Z</time>
      </trkpt>
      <trkpt lat="45.34869" lon="5.86491">
        <ele>1436.6</ele>
        <time>2015-08-22T11:30:50Z</time>
      </trkpt>
      <trkpt lat="45.34887" lon="5.86486">
        <ele>1440.31</ele>
        <time>2015-08-22T11:31:14Z</time>
      </trkpt>
      <trkpt lat="45.34904" lon="5.86477">
        <ele>1423.19</ele>
        <time>2015-08-22T11:31:32Z</time>
      </trkpt>
      <trkpt lat="45.34921" lon="5.86467">
        <ele>1413.78</ele>
        <time>2015-08-22T11:31:47Z</time>
      </trkpt>
      <trkpt lat="45.34935" lon="5.86447">
        <ele>1419.37</ele>
        <time>2015-08-22T11:32:02Z</time>
      </trkpt>
      <trkpt lat="45.34951" lon="5.86433">
        <ele>1409.65</ele>
        <time>2015-08-22T11:32:22Z</time>
      </trkpt>
      <trkpt lat="45.3497" lon="5.86432">
        <ele>1408.64</ele>
        <time>2015-08-22T11:32:40Z</time>
      </trkpt>
      <trkpt lat="45.34987" lon="5.86423">
        <ele>1408.94</ele>
        <time>2015-08-22T11:32:55Z</time>
      </trkpt>
      <trkpt lat="45.35002" lon="5.8641">
        <ele>1400.06</ele>
        <time>2015-08-22T11:33:17Z</time>
      </trkpt>
      <trkpt lat="45.35015" lon="5.8639">
        <ele>1389.83</ele>
        <time>2015-08-22T11:33:37Z</time>
      </trkpt>
      <trkpt lat="45.35026" lon="5.86369">
        <ele>1380.74</ele>
        <time>2015-08-22T11:34:05Z</time>
      </trkpt>
      <trkpt lat="45.35041" lon="5.86353">
        <ele>1376</ele>
        <time>2015-08-22T11:34:22Z</time>
      </trkpt>
      <trkpt lat="45.35055" lon="5.86337">
        <ele>1372.75</ele>
        <time>2015-08-22T11:34:42Z</time>
      </trkpt>
      <trkpt lat="45.3507" lon="5.86322">
        <ele>1366.19</ele>
        <time>2015-08-22T11:35:11Z</time>
      </trkpt>
      <trkpt lat="45.35087" lon="5.86311">
        <ele>1355.54</ele>
        <time>2015-08-22T11:35:25Z</time>
      </trkpt>
      <trkpt lat="45.35104" lon="5.86299">
        <ele>1355.2</ele>
        <time>2015-08-22T11:35:42Z</time>
      </trkpt>
      <trkpt lat="45.35122" lon="5.86294">
        <ele>1349.78</ele>
        <time>2015-08-22T11:36:01Z</time>
      </trkpt>
      <trkpt lat="45.35138" lon="5.86284">
        <ele>1342.93</ele>
        <time>2015-08-22T11:36:12Z</time>
      </trkpt>
      <trkpt lat="45.35157" lon="5.86277">
        <ele>1338.92</ele>
        <time>2015-08-22T11:36:32Z</time>
      </trkpt>
      <trkpt lat="45.35176" lon="5.86269">
        <ele>1330.41</ele>
        <time>2015-08-22T11:36:46Z</time>
      </trkpt>
      <trkpt lat="45.35194" lon="5.86262">
        <ele>1325.22</ele>
        <time>2015-08-22T11:37:01Z</time>
      </trkpt>
      <trkpt lat="45.35214" lon="5.86263">
        <ele>1326.07</ele>
        <time>2015-08-22T11:37:16Z</time>
      </trkpt>
      <trkpt lat="45.35231" lon="5.86259">
        <ele>1321.96</ele>
        <time>2015-08-22T11:37:31Z</time>
      </trkpt>
      <trkpt lat="45.3525" lon="5.86262">
        <ele>1317.46</ele>
        <time>2015-08-22T11:37:45Z</time>
      </trkpt>
      <trkpt lat="45.35268" lon="5.86259">
        <ele>1316.21</ele>
        <time>2015-08-22T11:37:59Z</time>
      </trkpt>
      <trkpt lat="45.35286" lon="5.86257">
        <ele>1315.94</ele>
        <time>2015-08-22T11:38:13Z</time>
      </trkpt>
      <trkpt lat="45.35305" lon="5.8625">
        <ele>1310.68</ele>
        <time>2015-08-22T11:39:04Z</time>
      </trkpt>
      <trkpt lat="45.35324" lon="5.86249">
        <ele>1309.37</ele>
        <time>2015-08-22T11:39:21Z</time>
      </trkpt>
      <trkpt lat="45.35341" lon="5.86255">
        <ele>1300.59</ele>
        <time>2015-08-22T11:39:35Z</time>
      </trkpt>
      <trkpt lat="45.35359" lon="5.86261">
        <ele>1297.97</ele>
        <time>2015-08-22T11:39:49Z</time>
      </trkpt>
      <trkpt lat="45.35377" lon="5.86256">
        <ele>1296.38</ele>
        <time>2015-08-22T11:41:45Z</time>
      </trkpt>
      <trkpt lat="45.35396" lon="5.86256">
        <ele>1291.53</ele>
        <time>2015-08-22T11:41:57Z</time>
      </trkpt>
      <trkpt lat="45.35414" lon="5.86263">
        <ele>1285.9</ele>
        <time>2015-08-22T11:42:11Z</time>
      </trkpt>
      <trkpt lat="45.35433" lon="5.86265">
        <ele>1277.55</ele>
        <time>2015-08-22T11:42:24Z</time>
      </trkpt>
      <trkpt lat="45.3545" lon="5.86267">
        <ele>1275.87</ele>
        <time>2015-08-22T11:42:50Z</time>
      </trkpt>
      <trkpt lat="45.35469" lon="5.86268">
        <ele>1267.98</ele>
        <time>2015-08-22T11:43:01Z</time>
      </trkpt>
      <trkpt lat="45.35487" lon="5.86273">
        <ele>1264.87</ele>
        <time>2015-08-22T11:43:15Z</time>
      </trkpt>
      <trkpt lat="45.35506" lon="5.86274">
        <ele>1257.84</ele>
        <time>2015-08-22T11:43:28Z</time>
      </trkpt>
      <trkpt lat="45.35523" lon="5.86281">
        <ele>1255.26</ele>
        <time>2015-08-22T11:43:44Z</time>
      </trkpt>
      <trkpt lat="45.35541" lon="5.8629">
        <ele>1253.19</ele>
        <time>2015-08-22T11:43:55Z</time>
      </trkpt>
      <trkpt lat="45.35559" lon="5.86297">
        <ele>1253.67</ele>
        <time>2015-08-22T11:44:09Z</time>
      </trkpt>
      <trkpt lat="45.35573" lon="5.86281">
        <ele>1257.73</ele>
        <time>2015-08-22T11:44:28Z</time>
      </trkpt>
      <trkpt lat="45.35587" lon="5.86261">
        <ele>1246.5</ele>
        <time>2015-08-22T11:44:49Z</time>
      </trkpt>
      <trkpt lat="45.35606" lon="5.8626">
        <ele>1243.94</ele>
        <time>2015-08-22T11:45:19Z</time>
      </trkpt>
      <trkpt lat="45.35625" lon="5.86261">
        <ele>1244.17</ele>
        <time>2015-08-22T11:45:33Z</time>
      </trkpt>
      <trkpt lat="45.35643" lon="5.86264">
        <ele>1242.86</ele>
        <time>2015-08-22T11:45:51Z</time>
      </trkpt>
      <trkpt lat="45.35662" lon="5.86265">
        <ele>1247.1</ele>
        <time>2015-08-22T11:46:17Z</time>
      </trkpt>
      <trkpt lat="45.35681" lon="5.8626">
        <ele>1250.76</ele>
        <time>2015-08-22T11:46:29Z</time>
      </trkpt>
      <trkpt lat="45.35699" lon="5.86251">
        <ele>1246.18</ele>
        <time>2015-08-22T11:46:43Z</time>
      </trkpt>
      <trkpt lat="45.35718" lon="5.86252">
        <ele>1242.67</ele>
        <time>2015-08-22T11:47:21Z</time>
      </trkpt>
      <trkpt lat="45.35737" lon="5.86248">
        <ele>1242.67</ele>
        <time>2015-08-22T11:47:32Z</time>
      </trkpt>
      <trkpt lat="45.35757" lon="5.86247">
        <ele>1245.47</ele>
        <time>2015-08-22T11:47:42Z</time>
      </trkpt>
      <trkpt lat="45.35774" lon="5.86238">
        <ele>1243.78</ele>
        <time>2015-08-22T11:48:00Z</time>
      </trkpt>
      <trkpt lat="45.35792" lon="5.86233">
        <ele>1232.73</ele>
        <time>2015-08-22T11:48:31Z</time>
      </trkpt>
      <trkpt lat="45.35809" lon="5.86226">
        <ele>1228.96</ele>
        <time>2015-08-22T11:48:42Z</time>
      </trkpt>
      <trkpt lat="45.35827" lon="5.8623">
        <ele>1235.09</ele>
        <time>2015-08-22T11:49:44Z</time>
      </trkpt>
      <trkpt lat="45.35847" lon="5.86231">
        <ele>1230.42</ele>
        <time>2015-08-22T11:49:56Z</time>
      </trkpt>
      <trkpt lat="45.35864" lon="5.86222">
        <ele>1232.86</ele>
        <time>2015-08-22T11:50:13Z</time>
      </trkpt>
      <trkpt lat="45.35882" lon="5.86218">
        <ele>1232.08</ele>
        <time>2015-08-22T11:50:29Z</time>
      </trkpt>
      <trkpt lat="45.35901" lon="5.86221">
        <ele>1241.32</ele>
        <time>2015-08-22T11:50:41Z</time>
      </trkpt>
      <trkpt lat="45.35921" lon="5.86216">
        <ele>1230.72</ele>
        <time>2015-08-22T11:52:14Z</time>
      </trkpt>
      <trkpt lat="45.35941" lon="5.86209">
        <ele>1224.66</ele>
        <time>2015-08-22T11:52:26Z</time>
      </trkpt>
      <trkpt lat="45.35959" lon="5.86206">
        <ele>1226.95</ele>
        <time>2015-08-22T11:52:37Z</time>
      </trkpt>
      <trkpt lat="45.35976" lon="5.86218">
        <ele>1229</ele>
        <time>2015-08-22T11:52:59Z</time>
      </trkpt>
      <trkpt lat="45.35994" lon="5.8621">
        <ele>1225.34</ele>
        <time>2015-08-22T11:53:08Z</time>
      </trkpt>
      <trkpt lat="45.36012" lon="5.86211">
        <ele>1223.78</ele>
        <time>2015-08-22T11:53:20Z</time>
      </trkpt>
      <trkpt lat="45.36031" lon="5.86211">
        <ele>1218.51</ele>
        <time>2015-08-22T11:53:33Z</time>
      </trkpt>
      <trkpt lat="45.36049" lon="5.86207">
        <ele>1212.5</ele>
        <time>2015-08-22T11:53:45Z</time>
      </trkpt>
      <trkpt lat="45.36067" lon="5.86215">
        <ele>1207.19</ele>
        <time>2015-08-22T11:54:24Z</time>
      </trkpt>
      <trkpt lat="45.36085" lon="5.86218">
        <ele>1204.69</ele>
        <time>2015-08-22T11:54:39Z</time>
      </trkpt>
      <trkpt lat="45.36104" lon="5.86214">
        <ele>1210.42</ele>
        <time>2015-08-22T11:54:52Z</time>
      </trkpt>
      <trkpt lat="45.36122" lon="5.86208">
        <ele>1209.64</ele>
        <time>2015-08-22T11:55:06Z</time>
      </trkpt>
      <trkpt lat="45.36141" lon="5.86203">
        <ele>1212.57</ele>
        <time>2015-08-22T11:55:22Z</time>
      </trkpt>
      <trkpt lat="45.3616" lon="5.86198">
        <ele>1213.62</ele>
        <time>2015-08-22T11:55:38Z</time>
      </trkpt>
      <trkpt lat="45.36179" lon="5.86194">
        <ele>1211.53</ele>
        <time>2015-08-22T11:55:47Z</time>
      </trkpt>
      <trkpt lat="45.36198" lon="5.86187">
        <ele>1201.02</ele>
        <time>2015-08-22T11:56:13Z</time>
      </trkpt>
      <trkpt lat="45.36217" lon="5.86178">
        <ele>1200.64</ele>
        <time>2015-08-22T11:56:28Z</time>
      </trkpt>
      <trkpt lat="45.36236" lon="5.8617">
        <ele>1199.89</ele>
        <time>2015-08-22T11:56:36Z</time>
      </trkpt>
      <trkpt lat="45.36254" lon="5.86159">
        <ele>1201.52</ele>
        <time>2015-08-22T11:56:44Z</time>
      </trkpt>
      <trkpt lat="45.36272" lon="5.86151">
        <ele>1201.9</ele>
        <time>2015-08-22T11:56:56Z</time>
      </trkpt>
      <trkpt lat="45.3629" lon="5.86148">
        <ele>1202.06</ele>
        <time>2015-08-22T11:57:10Z</time>
      </trkpt>
      <trkpt lat="45.36308" lon="5.86141">
        <ele>1199.09</ele>
        <time>2015-08-22T11:57:23Z</time>
      </trkpt>
      <trkpt lat="45.36326" lon="5.86141">
        <ele>1183.51</ele>
        <time>2015-08-22T11:57:45Z</time>
      </trkpt>
      <trkpt lat="45.36343" lon="5.86152">
        <ele>1181.13</ele>
        <time>2015-08-22T11:57:55Z</time>
      </trkpt>
      <trkpt lat="45.36359" lon="5.86169">
        <ele>1178.05</ele>
        <time>2015-08-22T11:58:17Z</time>
      </trkpt>
      <trkpt lat="45.36377" lon="5.86168">
        <ele>1169.44</ele>
        <time>2015-08-22T11:58:27Z</time>
      </trkpt>
      <trkpt lat="45.36397" lon="5.86166">
        <ele>1164.07</ele>
        <time>2015-08-22T11:58:41Z</time>
      </trkpt>
      <trkpt lat="45.36415" lon="5.8616">
        <ele>1165.34</ele>
        <time>2015-08-22T11:58:55Z</time>
      </trkpt>
      <trkpt lat="45.36434" lon="5.86159">
        <ele>1165.61</ele>
        <time>2015-08-22T11:59:09Z</time>
      </trkpt>
      <trkpt lat="45.36453" lon="5.86155">
        <ele>1155.88</ele>
        <time>2015-08-22T11:59:37Z</time>
      </trkpt>
      <trkpt lat="45.36471" lon="5.86159">
        <ele>1154.51</ele>
        <time>2015-08-22T11:59:49Z</time>
      </trkpt>
      <trkpt lat="45.3649" lon="5.86167">
        <ele>1162.42</ele>
        <time>2015-08-22T12:00:07Z</time>
      </trkpt>
      <trkpt lat="45.36507" lon="5.86163">
        <ele>1159.09</ele>
        <time>2015-08-22T12:00:20Z</time>
      </trkpt>
      <trkpt lat="45.36526" lon="5.86164">
        <ele>1152.76</ele>
        <time>2015-08-22T12:00:33Z</time>
      </trkpt>
      <trkpt lat="45.36544" lon="5.8617">
        <ele>1153.84</ele>
        <time>2015-08-22T12:00:45Z</time>
      </trkpt>
      <trkpt lat="45.36563" lon="5.86173">
        <ele>1152.15</ele>
        <time>2015-08-22T12:00:58Z</time>
      </trkpt>
      <trkpt lat="45.36581" lon="5.86173">
        <ele>1147.96</ele>
        <time>2015-08-22T12:01:09Z</time>
      </trkpt>
      <trkpt lat="45.36598" lon="5.86183">
        <ele>1151.38</ele>
        <time>2015-08-22T12:01:22Z</time>
      </trkpt>
      <trkpt lat="45.36617" lon="5.8619">
        <ele>1148.95</ele>
        <time>2015-08-22T12:01:35Z</time>
      </trkpt>
      <trkpt lat="45.36636" lon="5.86195">
        <ele>1138.34</ele>
        <time>2015-08-22T12:01:47Z</time>
      </trkpt>
      <trkpt lat="45.36655" lon="5.86197">
        <ele>1133.46</ele>
        <time>2015-08-22T12:02:00Z</time>
      </trkpt>
      <trkpt lat="45.36673" lon="5.86205">
        <ele>1134.67</ele>
        <time>2015-08-22T12:02:13Z</time>
      </trkpt>
      <trkpt lat="45.36692" lon="5.8621">
        <ele>1132.72</ele>
        <time>2015-08-22T12:02:25Z</time>
      </trkpt>
      <trkpt lat="45.3671" lon="5.86215">
        <ele>1127.53</ele>
        <time>2015-08-22T12:02:35Z</time>
      </trkpt>
      <trkpt lat="45.36727" lon="5.86224">
        <ele>1126.63</ele>
        <time>2015-08-22T12:02:47Z</time>
      </trkpt>
      <trkpt lat="45.36743" lon="5.86237">
        <ele>1127.56</ele>
        <time>2015-08-22T12:03:01Z</time>
      </trkpt>
      <trkpt lat="45.36761" lon="5.86247">
        <ele>1127.7</ele>
        <time>2015-08-22T12:03:13Z</time>
      </trkpt>
      <trkpt lat="45.36779" lon="5.86242">
        <ele>1123.37</ele>
        <time>2015-08-22T12:03:24Z</time>
      </trkpt>
      <trkpt lat="45.36797" lon="5.86236">
        <ele>1114.7</ele>
        <time>2015-08-22T12:03:35Z</time>
      </trkpt>
      <trkpt lat="45.36814" lon="5.86224">
        <ele>1106.49</ele>
        <time>2015-08-22T12:03:44Z</time>
      </trkpt>
      <trkpt lat="45.36832" lon="5.86214">
        <ele>1105.51</ele>
        <time>2015-08-22T12:03:57Z</time>
      </trkpt>
      <trkpt lat="45.3685" lon="5.86213">
        <ele>1107.95</ele>
        <time>2015-08-22T12:04:10Z</time>
      </trkpt>
      <trkpt lat="45.36868" lon="5.86209">
        <ele>1104.94</ele>
        <time>2015-08-22T12:04:25Z</time>
      </trkpt>
      <trkpt lat="45.36886" lon="5.86214">
        <ele>1102.89</ele>
        <time>2015-08-22T12:04:43Z</time>
      </trkpt>
      <trkpt lat="45.36904" lon="5.86228">
        <ele>1103.2</ele>
        <time>2015-08-22T12:04:57Z</time>
      </trkpt>
      <trkpt lat="45.36922" lon="5.86234">
        <ele>1099.23</ele>
        <time>2015-08-22T12:05:07Z</time>
      </trkpt>
      <trkpt lat="45.36941" lon="5.86233">
        <ele>1090.32</ele>
        <time>2015-08-22T12:05:20Z</time>
      </trkpt>
      <trkpt lat="45.36959" lon="5.86236">
        <ele>1092.34</ele>
        <time>2015-08-22T12:05:32Z</time>
      </trkpt>
      <trkpt lat="45.36977" lon="5.86231">
        <ele>1090.22</ele>
        <time>2015-08-22T12:05:43Z</time>
      </trkpt>
      <trkpt lat="45.36995" lon="5.86237">
        <ele>1091.7</ele>
        <time>2015-08-22T12:05:56Z</time>
      </trkpt>
      <trkpt lat="45.37014" lon="5.86233">
        <ele>1090.77</ele>
        <time>2015-08-22T12:06:07Z</time>
      </trkpt>
      <trkpt lat="45.37032" lon="5.86226">
        <ele>1086.63</ele>
        <time>2015-08-22T12:06:20Z</time>
      </trkpt>
      <trkpt lat="45.37051" lon="5.86221">
        <ele>1080.67</ele>
        <time>2015-08-22T12:06:33Z</time>
      </trkpt>
      <trkpt lat="45.37065" lon="5.86204">
        <ele>1067.62</ele>
        <time>2015-08-22T12:06:45Z</time>
      </trkpt>
      <trkpt lat="45.37082" lon="5.86189">
        <ele>1071.96</ele>
        <time>2015-08-22T12:06:56Z</time>
      </trkpt>
      <trkpt lat="45.37096" lon="5.86171">
        <ele>1066.92</ele>
        <time>2015-08-22T12:07:06Z</time>
      </trkpt>
      <trkpt lat="45.37105" lon="5.86147">
        <ele>1067.33</ele>
        <time>2015-08-22T12:07:18Z</time>
      </trkpt>
      <trkpt lat="45.37123" lon="5.86157">
        <ele>1089.05</ele>
        <time>2015-08-22T12:07:35Z</time>
      </trkpt>
      <trkpt lat="45.37138" lon="5.86171">
        <ele>1094.11</ele>
        <time>2015-08-22T12:08:01Z</time>
      </trkpt>
      <trkpt lat="45.37156" lon="5.86163">
        <ele>1094.53</ele>
        <time>2015-08-22T12:08:19Z</time>
      </trkpt>
      <trkpt lat="45.37174" lon="5.86159">
        <ele>1085.58</ele>
        <time>2015-08-22T12:08:31Z</time>
      </trkpt>
      <trkpt lat="45.37192" lon="5.86168">
        <ele>1081.1</ele>
        <time>2015-08-22T12:08:47Z</time>
      </trkpt>
      <trkpt lat="45.3721" lon="5.86175">
        <ele>1080.83</ele>
        <time>2015-08-22T12:09:03Z</time>
      </trkpt>
      <trkpt lat="45.37228" lon="5.8618">
        <ele>1070.62</ele>
        <time>2015-08-22T12:09:20Z</time>
      </trkpt>
      <trkpt lat="45.37246" lon="5.86174">
        <ele>1058.84</ele>
        <time>2015-08-22T12:09:41Z</time>
      </trkpt>
      <trkpt lat="45.37261" lon="5.86161">
        <ele>1062.92</ele>
        <time>2015-08-22T12:09:53Z</time>
      </trkpt>
      <trkpt lat="45.37278" lon="5.8615">
        <ele>1065.97</ele>
        <time>2015-08-22T12:10:07Z</time>
      </trkpt>
      <trkpt lat="45.37296" lon="5.86155">
        <ele>1066.64</ele>
        <time>2015-08-22T12:10:26Z</time>
      </trkpt>
      <trkpt lat="45.37314" lon="5.86148">
        <ele>1057.52</ele>
        <time>2015-08-22T12:10:40Z</time>
      </trkpt>
      <trkpt lat="45.37334" lon="5.86148">
        <ele>1056.82</ele>
        <time>2015-08-22T12:10:57Z</time>
      </trkpt>
      <trkpt lat="45.37352" lon="5.86147">
        <ele>1055.76</ele>
        <time>2015-08-22T12:11:10Z</time>
      </trkpt>
      <trkpt lat="45.37371" lon="5.86144">
        <ele>1049.04</ele>
        <time>2015-08-22T12:11:21Z</time>
      </trkpt>
      <trkpt lat="45.37384" lon="5.86127">
        <ele>1044.31</ele>
        <time>2015-08-22T12:11:31Z</time>
      </trkpt>
      <trkpt lat="45.37397" lon="5.86106">
        <ele>1042.85</ele>
        <time>2015-08-22T12:11:44Z</time>
      </trkpt>
      <trkpt lat="45.37411" lon="5.86088">
        <ele>1036.86</ele>
        <time>2015-08-22T12:11:57Z</time>
      </trkpt>
      <trkpt lat="45.37429" lon="5.86081">
        <ele>1028.29</ele>
        <time>2015-08-22T12:12:11Z</time>
      </trkpt>
      <trkpt lat="45.37448" lon="5.86075">
        <ele>1025.27</ele>
        <time>2015-08-22T12:12:25Z</time>
      </trkpt>
      <trkpt lat="45.37464" lon="5.86061">
        <ele>1025.63</ele>
        <time>2015-08-22T12:12:39Z</time>
      </trkpt>
      <trkpt lat="45.37481" lon="5.86048">
        <ele>1022.78</ele>
        <time>2015-08-22T12:12:52Z</time>
      </trkpt>
      <trkpt lat="45.37496" lon="5.86033">
        <ele>1010.39</ele>
        <time>2015-08-22T12:13:03Z</time>
      </trkpt>
      <trkpt lat="45.3751" lon="5.86016">
        <ele>1013.27</ele>
        <time>2015-08-22T12:13:17Z</time>
      </trkpt>
      <trkpt lat="45.37527" lon="5.86002">
        <ele>1017.71</ele>
        <time>2015-08-22T12:13:33Z</time>
      </trkpt>
      <trkpt lat="45.3754" lon="5.85983">
        <ele>1015.59</ele>
        <time>2015-08-22T12:13:45Z</time>
      </trkpt>
      <trkpt lat="45.37554" lon="5.85966">
        <ele>1013.97</ele>
        <time>2015-08-22T12:13:58Z</time>
      </trkpt>
      <trkpt lat="45.37569" lon="5.85948">
        <ele>1008.44</ele>
        <time>2015-08-22T12:14:13Z</time>
      </trkpt>
      <trkpt lat="45.37584" lon="5.85932">
        <ele>1005.69</ele>
        <time>2015-08-22T12:14:26Z</time>
      </trkpt>
      <trkpt lat="45.37596" lon="5.85914">
        <ele>1001.34</ele>
        <time>2015-08-22T12:14:39Z</time>
      </trkpt>
      <trkpt lat="45.37608" lon="5.85892">
        <ele>997.89</ele>
        <time>2015-08-22T12:14:52Z</time>
      </trkpt>
      <trkpt lat="45.37618" lon="5.85869">
        <ele>995.1</ele>
        <time>2015-08-22T12:15:05Z</time>
      </trkpt>
      <trkpt lat="45.3763" lon="5.85846">
        <ele>994.2</ele>
        <time>2015-08-22T12:15:19Z</time>
      </trkpt>
      <trkpt lat="45.37643" lon="5.85827">
        <ele>996.58</ele>
        <time>2015-08-22T12:15:34Z</time>
      </trkpt>
      <trkpt lat="45.37658" lon="5.8581">
        <ele>1005.34</ele>
        <time>2015-08-22T12:15:41Z</time>
      </trkpt>
      <trkpt lat="45.3767" lon="5.85789">
        <ele>1006.35</ele>
        <time>2015-08-22T12:15:50Z</time>
      </trkpt>
      <trkpt lat="45.37684" lon="5.8577">
        <ele>1001.71</ele>
        <time>2015-08-22T12:16:00Z</time>
      </trkpt>
      <trkpt lat="45.37691" lon="5.85745">
        <ele>992.42</ele>
        <time>2015-08-22T12:16:12Z</time>
      </trkpt>
      <trkpt lat="45.37703" lon="5.85724">
        <ele>989.1</ele>
        <time>2015-08-22T12:16:23Z</time>
      </trkpt>
    </trkseg>
  </trk>
</gpx>